<?xml version="1.0" encoding="UTF-8" standalone="no" ?>
<gpx xmlns="http://www.topografix.com/GPX/1/1" xmlns:xsi="http://www.w3.org/2001/XMLSchema-instance" xsi:schemaLocation="http://www.topografix.com/GPX/1/1 http://www.topografix.com/GPX/1/1/gpx.xsd" version="1.1" creator="VisuGPX - https://www.visugpx.com">
  <metadata>
    <name>CCFM  052 </name>
    <desc><![CDATA[✒️CS.Ivoz, Esneux, Mery, Hayen, Les Forges, Stinval, Hornay,[b] POULSEUR[/b], Ry d'Oneux, Hody, Ouffet, Warzée, Fraiture, Nandrin, Poudrière.]]></desc>
  </metadata>
  <trk>
    <name><![CDATA[CCFM  052]]></name>
    <extensions>
      <line xmlns="http://www.topografix.com/GPX/gpx_style/0/2">
        <color>0000FF</color>
        <opacity>0.7</opacity>
        <width>3</width>
          <extensions>
            <sens>1</sens>
          </extensions>
      </line>
    </extensions>
    <trkseg>
      <trkpt lat="50.62331" lon="5.44821">
        <ele>187.9</ele>
        <extensions>
          <visugpx:TrkExtension xmlns:visugpx="https://www.visugpx.com/editgpx/">
            <visugpx:node>1</visugpx:node>
            </visugpx:TrkExtension>
        </extensions>
      </trkpt>
      <trkpt lat="50.62321" lon="5.4495">
        <ele>188</ele>
        <time>2016-10-21T00:15:06Z</time>
      </trkpt>
      <trkpt lat="50.6232" lon="5.45027">
        <ele>187</ele>
        <time>2016-10-21T00:17:06Z</time>
      </trkpt>
      <trkpt lat="50.62336" lon="5.45563">
        <ele>185</ele>
        <time>2016-10-21T00:19:06Z</time>
      </trkpt>
      <trkpt lat="50.62333" lon="5.45584">
        <ele>185</ele>
        <time>2016-10-21T00:21:06Z</time>
      </trkpt>
      <trkpt lat="50.62338" lon="5.45592">
        <ele>185</ele>
        <time>2016-10-21T00:23:06Z</time>
      </trkpt>
      <trkpt lat="50.6233" lon="5.45606">
        <ele>184</ele>
        <time>2016-10-21T00:25:06Z</time>
      </trkpt>
      <trkpt lat="50.62322" lon="5.45634">
        <ele>184</ele>
        <time>2016-10-21T00:27:06Z</time>
      </trkpt>
      <trkpt lat="50.62272" lon="5.45849">
        <ele>182</ele>
        <time>2016-10-21T00:29:06Z</time>
      </trkpt>
      <trkpt lat="50.62257" lon="5.45903">
        <ele>182</ele>
        <time>2016-10-21T00:31:06Z</time>
      </trkpt>
      <trkpt lat="50.6224" lon="5.45964">
        <ele>182</ele>
        <time>2016-10-21T00:33:06Z</time>
      </trkpt>
      <trkpt lat="50.6223" lon="5.45992">
        <ele>182</ele>
        <time>2016-10-19T09:45:06Z</time>
      </trkpt>
      <trkpt lat="50.62219" lon="5.45995">
        <ele>182</ele>
        <time>2016-10-19T09:47:06Z</time>
      </trkpt>
      <trkpt lat="50.62208" lon="5.45996">
        <ele>181</ele>
        <time>2016-10-19T09:49:06Z</time>
      </trkpt>
      <trkpt lat="50.62203" lon="5.45996">
        <ele>181</ele>
        <time>2016-10-19T09:51:06Z</time>
      </trkpt>
      <trkpt lat="50.62195" lon="5.45999">
        <ele>181</ele>
        <time>2016-10-19T09:53:06Z</time>
      </trkpt>
      <trkpt lat="50.6215" lon="5.46008">
        <ele>181</ele>
        <time>2016-10-19T09:55:06Z</time>
      </trkpt>
      <trkpt lat="50.62125" lon="5.46018">
        <ele>181</ele>
        <time>2016-10-19T09:57:06Z</time>
      </trkpt>
      <trkpt lat="50.62079" lon="5.46052">
        <ele>181</ele>
        <time>2016-10-19T09:59:06Z</time>
      </trkpt>
      <trkpt lat="50.61894" lon="5.46144">
        <ele>173</ele>
        <time>2016-10-19T10:01:06Z</time>
      </trkpt>
      <trkpt lat="50.61861" lon="5.46149">
        <ele>170</ele>
        <time>2016-10-19T10:03:06Z</time>
      </trkpt>
      <trkpt lat="50.61857" lon="5.46138">
        <ele>170</ele>
        <time>2016-10-19T10:05:06Z</time>
      </trkpt>
      <trkpt lat="50.61849" lon="5.46139">
        <ele>169</ele>
        <time>2016-10-19T10:07:06Z</time>
      </trkpt>
      <trkpt lat="50.61846" lon="5.4615">
        <ele>169</ele>
        <time>2016-10-19T10:09:06Z</time>
      </trkpt>
      <trkpt lat="50.61835" lon="5.46152">
        <ele>169</ele>
        <time>2016-10-19T10:11:06Z</time>
      </trkpt>
      <trkpt lat="50.61768" lon="5.46227">
        <ele>164</ele>
        <time>2016-10-19T10:13:06Z</time>
      </trkpt>
      <trkpt lat="50.61742" lon="5.46242">
        <ele>163</ele>
        <time>2016-10-19T10:15:06Z</time>
      </trkpt>
      <trkpt lat="50.61727" lon="5.46243">
        <ele>161</ele>
        <time>2016-10-19T10:17:06Z</time>
      </trkpt>
      <trkpt lat="50.61667" lon="5.46228">
        <ele>157</ele>
        <time>2016-10-19T10:19:06Z</time>
      </trkpt>
      <trkpt lat="50.61649" lon="5.4623">
        <ele>155</ele>
        <time>2016-10-19T10:21:06Z</time>
      </trkpt>
      <trkpt lat="50.61632" lon="5.46245">
        <ele>154</ele>
        <time>2016-10-19T10:23:06Z</time>
      </trkpt>
      <trkpt lat="50.61619" lon="5.46267">
        <ele>152</ele>
        <time>2016-10-19T10:25:06Z</time>
      </trkpt>
      <trkpt lat="50.61529" lon="5.4647">
        <ele>145</ele>
        <time>2016-10-19T10:27:06Z</time>
      </trkpt>
      <trkpt lat="50.61405" lon="5.46147">
        <ele>134</ele>
        <time>2016-10-19T10:29:06Z</time>
      </trkpt>
      <trkpt lat="50.61391" lon="5.46124">
        <ele>133</ele>
        <time>2016-10-19T10:31:06Z</time>
      </trkpt>
      <trkpt lat="50.61345" lon="5.46079">
        <ele>129</ele>
        <time>2016-10-19T10:33:06Z</time>
      </trkpt>
      <trkpt lat="50.61307" lon="5.45995">
        <ele>122</ele>
        <time>2016-10-19T10:35:06Z</time>
      </trkpt>
      <trkpt lat="50.61298" lon="5.45985">
        <ele>123</ele>
        <time>2016-10-19T10:37:06Z</time>
      </trkpt>
      <trkpt lat="50.61282" lon="5.45972">
        <ele>123</ele>
        <time>2016-10-19T10:39:06Z</time>
      </trkpt>
      <trkpt lat="50.61223" lon="5.45968">
        <ele>123</ele>
        <time>2016-10-19T10:41:06Z</time>
      </trkpt>
      <trkpt lat="50.61208" lon="5.45965">
        <ele>122</ele>
        <time>2016-10-19T10:43:06Z</time>
      </trkpt>
      <trkpt lat="50.61191" lon="5.45954">
        <ele>122</ele>
        <time>2016-10-19T10:45:06Z</time>
      </trkpt>
      <trkpt lat="50.61176" lon="5.45939">
        <ele>121</ele>
        <time>2016-10-19T10:47:06Z</time>
      </trkpt>
      <trkpt lat="50.61165" lon="5.45917">
        <ele>120</ele>
        <time>2016-10-19T10:49:06Z</time>
      </trkpt>
      <trkpt lat="50.61155" lon="5.45879">
        <ele>118</ele>
        <time>2016-10-19T10:51:06Z</time>
      </trkpt>
      <trkpt lat="50.61095" lon="5.45838">
        <ele>113</ele>
        <time>2016-10-19T10:53:06Z</time>
      </trkpt>
      <trkpt lat="50.60987" lon="5.45718">
        <ele>111</ele>
        <time>2016-10-19T10:55:06Z</time>
      </trkpt>
      <trkpt lat="50.60967" lon="5.45701">
        <ele>110</ele>
        <time>2016-10-19T10:57:06Z</time>
      </trkpt>
      <trkpt lat="50.6094" lon="5.45677">
        <ele>108</ele>
        <time>2016-10-19T10:59:06Z</time>
      </trkpt>
      <trkpt lat="50.60913" lon="5.4563">
        <ele>108</ele>
        <time>2016-10-19T11:01:06Z</time>
      </trkpt>
      <trkpt lat="50.60855" lon="5.45573">
        <ele>110</ele>
        <time>2016-10-19T11:03:06Z</time>
      </trkpt>
      <trkpt lat="50.60821" lon="5.45529">
        <ele>113</ele>
        <time>2016-10-19T11:05:06Z</time>
      </trkpt>
      <trkpt lat="50.60773" lon="5.45524">
        <ele>115</ele>
        <time>2016-10-19T11:07:06Z</time>
      </trkpt>
      <trkpt lat="50.60729" lon="5.45532">
        <ele>116</ele>
        <time>2016-10-19T11:09:06Z</time>
      </trkpt>
      <trkpt lat="50.60641" lon="5.45574">
        <ele>116</ele>
        <time>2016-10-19T11:11:06Z</time>
      </trkpt>
      <trkpt lat="50.60475" lon="5.45585">
        <ele>110</ele>
        <time>2016-10-19T11:13:06Z</time>
      </trkpt>
      <trkpt lat="50.60364" lon="5.45632">
        <ele>104</ele>
        <time>2016-10-19T11:15:06Z</time>
      </trkpt>
      <trkpt lat="50.60332" lon="5.4564">
        <ele>102</ele>
        <time>2016-10-19T11:17:06Z</time>
      </trkpt>
      <trkpt lat="50.60294" lon="5.45661">
        <ele>100</ele>
        <time>2016-10-19T11:19:06Z</time>
      </trkpt>
      <trkpt lat="50.60287" lon="5.45669">
        <ele>100</ele>
        <time>2016-10-19T11:21:06Z</time>
      </trkpt>
      <trkpt lat="50.60212" lon="5.45688">
        <ele>101</ele>
        <time>2016-10-19T11:23:06Z</time>
      </trkpt>
      <trkpt lat="50.60156" lon="5.45725">
        <ele>101</ele>
        <time>2016-10-19T11:25:06Z</time>
      </trkpt>
      <trkpt lat="50.60138" lon="5.45748">
        <ele>101</ele>
        <time>2016-10-19T11:27:06Z</time>
      </trkpt>
      <trkpt lat="50.60106" lon="5.45803">
        <ele>97</ele>
        <time>2016-10-19T11:29:06Z</time>
      </trkpt>
      <trkpt lat="50.60078" lon="5.45872">
        <ele>92</ele>
        <time>2016-10-19T11:31:06Z</time>
      </trkpt>
      <trkpt lat="50.60071" lon="5.45894">
        <ele>93</ele>
        <time>2016-10-19T11:33:06Z</time>
      </trkpt>
      <trkpt lat="50.60063" lon="5.45942">
        <ele>91</ele>
        <time>2016-10-19T11:35:06Z</time>
      </trkpt>
      <trkpt lat="50.60059" lon="5.46016">
        <ele>88</ele>
        <time>2016-10-19T11:37:06Z</time>
      </trkpt>
      <trkpt lat="50.60049" lon="5.46018">
        <ele>89</ele>
        <time>2016-10-19T11:39:06Z</time>
      </trkpt>
      <trkpt lat="50.60056" lon="5.46039">
        <ele>89</ele>
        <time>2016-10-19T11:41:06Z</time>
      </trkpt>
      <trkpt lat="50.60066" lon="5.46225">
        <ele>88</ele>
        <time>2016-10-19T11:43:06Z</time>
      </trkpt>
      <trkpt lat="50.6009" lon="5.46316">
        <ele>88</ele>
        <time>2016-10-19T11:45:06Z</time>
      </trkpt>
      <trkpt lat="50.60095" lon="5.46346">
        <ele>89</ele>
        <time>2016-10-19T11:47:06Z</time>
      </trkpt>
      <trkpt lat="50.60106" lon="5.46468">
        <ele>90</ele>
        <time>2016-10-19T11:49:06Z</time>
      </trkpt>
      <trkpt lat="50.60101" lon="5.46504">
        <ele>87</ele>
        <time>2016-10-19T11:51:06Z</time>
      </trkpt>
      <trkpt lat="50.60094" lon="5.46527">
        <ele>84</ele>
        <time>2016-10-19T11:53:06Z</time>
      </trkpt>
      <trkpt lat="50.60085" lon="5.46543">
        <ele>80</ele>
        <time>2016-10-19T11:55:06Z</time>
      </trkpt>
      <trkpt lat="50.60008" lon="5.46613">
        <ele>73</ele>
        <time>2016-10-19T11:57:06Z</time>
      </trkpt>
      <trkpt lat="50.59969" lon="5.4649">
        <ele>72</ele>
        <time>2016-10-19T11:59:06Z</time>
      </trkpt>
      <trkpt lat="50.59933" lon="5.46346">
        <ele>74</ele>
        <time>2016-10-19T12:01:06Z</time>
      </trkpt>
      <trkpt lat="50.59914" lon="5.46333">
        <ele>73</ele>
        <time>2016-10-19T12:03:06Z</time>
      </trkpt>
      <trkpt lat="50.59817" lon="5.46431">
        <ele>67</ele>
        <time>2016-10-19T12:05:06Z</time>
      </trkpt>
      <trkpt lat="50.59796" lon="5.46442">
        <ele>67</ele>
        <time>2016-10-19T12:07:06Z</time>
      </trkpt>
      <trkpt lat="50.59732" lon="5.46458">
        <ele>67</ele>
        <time>2016-10-19T12:09:06Z</time>
      </trkpt>
      <trkpt lat="50.59706" lon="5.46459">
        <ele>67</ele>
        <time>2016-10-19T12:11:06Z</time>
      </trkpt>
      <trkpt lat="50.59711" lon="5.46472">
        <ele>67</ele>
        <time>2016-10-19T12:13:06Z</time>
      </trkpt>
      <trkpt lat="50.59609" lon="5.46214">
        <ele>68</ele>
        <time>2016-10-19T12:15:06Z</time>
      </trkpt>
      <trkpt lat="50.59542" lon="5.4603">
        <ele>69</ele>
        <time>2016-10-19T12:17:06Z</time>
      </trkpt>
      <trkpt lat="50.59513" lon="5.4605">
        <ele>70</ele>
        <time>2016-10-19T12:19:06Z</time>
      </trkpt>
      <trkpt lat="50.5945" lon="5.46077">
        <ele>69</ele>
        <time>2016-10-19T12:21:06Z</time>
      </trkpt>
      <trkpt lat="50.59404" lon="5.46079">
        <ele>67</ele>
        <time>2016-10-19T12:23:06Z</time>
      </trkpt>
      <trkpt lat="50.59382" lon="5.46066">
        <ele>66</ele>
        <time>2016-10-19T12:25:06Z</time>
      </trkpt>
      <trkpt lat="50.59372" lon="5.4607">
        <ele>66</ele>
        <time>2016-10-19T12:27:06Z</time>
      </trkpt>
      <trkpt lat="50.59366" lon="5.46082">
        <ele>66</ele>
        <time>2016-10-19T12:29:06Z</time>
      </trkpt>
      <trkpt lat="50.59324" lon="5.46099">
        <ele>65</ele>
        <time>2016-10-19T12:31:06Z</time>
      </trkpt>
      <trkpt lat="50.59147" lon="5.46154">
        <ele>63</ele>
        <time>2016-10-19T12:33:06Z</time>
      </trkpt>
      <trkpt lat="50.59083" lon="5.46167">
        <ele>65</ele>
        <time>2016-10-19T12:35:06Z</time>
      </trkpt>
      <trkpt lat="50.5906" lon="5.46166">
        <ele>66</ele>
        <time>2016-10-19T12:37:06Z</time>
      </trkpt>
      <trkpt lat="50.59008" lon="5.46185">
        <ele>68</ele>
        <time>2016-10-19T12:39:06Z</time>
      </trkpt>
      <trkpt lat="50.58937" lon="5.46261">
        <ele>68</ele>
        <time>2016-10-19T12:41:06Z</time>
      </trkpt>
      <trkpt lat="50.58864" lon="5.46353">
        <ele>69</ele>
        <time>2016-10-19T12:43:06Z</time>
      </trkpt>
      <trkpt lat="50.58832" lon="5.46383">
        <ele>70</ele>
        <time>2016-10-19T12:45:06Z</time>
      </trkpt>
      <trkpt lat="50.58825" lon="5.46399">
        <ele>71</ele>
        <time>2016-10-19T12:47:06Z</time>
      </trkpt>
      <trkpt lat="50.58761" lon="5.4639">
        <ele>77</ele>
        <time>2016-10-19T12:49:06Z</time>
      </trkpt>
      <trkpt lat="50.58728" lon="5.46373">
        <ele>80</ele>
        <time>2016-10-19T12:51:06Z</time>
      </trkpt>
      <trkpt lat="50.58658" lon="5.46324">
        <ele>82</ele>
        <time>2016-10-19T12:53:06Z</time>
      </trkpt>
      <trkpt lat="50.58613" lon="5.46283">
        <ele>85</ele>
        <time>2016-10-19T12:55:06Z</time>
      </trkpt>
      <trkpt lat="50.58574" lon="5.46228">
        <ele>88</ele>
        <time>2016-10-19T12:57:06Z</time>
      </trkpt>
      <trkpt lat="50.58568" lon="5.46194">
        <ele>88</ele>
        <time>2016-10-19T12:59:06Z</time>
      </trkpt>
      <trkpt lat="50.58523" lon="5.4609">
        <ele>91</ele>
        <time>2016-10-19T13:01:06Z</time>
      </trkpt>
      <trkpt lat="50.58459" lon="5.46003">
        <ele>100</ele>
        <time>2016-10-19T13:03:06Z</time>
      </trkpt>
      <trkpt lat="50.58407" lon="5.45922">
        <ele>106</ele>
        <time>2016-10-19T13:05:06Z</time>
      </trkpt>
      <trkpt lat="50.58369" lon="5.45889">
        <ele>110</ele>
        <time>2016-10-19T13:07:06Z</time>
      </trkpt>
      <trkpt lat="50.58355" lon="5.45887">
        <ele>112</ele>
        <time>2016-10-19T13:09:06Z</time>
      </trkpt>
      <trkpt lat="50.58327" lon="5.45898">
        <ele>114</ele>
        <time>2016-10-19T13:11:06Z</time>
      </trkpt>
      <trkpt lat="50.58296" lon="5.45914">
        <ele>116</ele>
        <time>2016-10-19T13:13:06Z</time>
      </trkpt>
      <trkpt lat="50.58284" lon="5.45913">
        <ele>117</ele>
        <time>2016-10-19T13:15:06Z</time>
      </trkpt>
      <trkpt lat="50.58259" lon="5.45895">
        <ele>120</ele>
        <time>2016-10-19T13:17:06Z</time>
      </trkpt>
      <trkpt lat="50.58199" lon="5.45835">
        <ele>127</ele>
        <time>2016-10-19T13:19:06Z</time>
      </trkpt>
      <trkpt lat="50.58194" lon="5.45837">
        <ele>127</ele>
        <time>2016-10-19T13:21:06Z</time>
      </trkpt>
      <trkpt lat="50.58018" lon="5.45775">
        <ele>132</ele>
        <time>2016-10-19T13:23:06Z</time>
      </trkpt>
      <trkpt lat="50.57977" lon="5.45754">
        <ele>137</ele>
        <time>2016-10-19T13:25:06Z</time>
      </trkpt>
      <trkpt lat="50.5796" lon="5.45756">
        <ele>138</ele>
        <time>2016-10-19T13:27:06Z</time>
      </trkpt>
      <trkpt lat="50.57931" lon="5.45771">
        <ele>139</ele>
        <time>2016-10-19T13:29:06Z</time>
      </trkpt>
      <trkpt lat="50.57918" lon="5.45769">
        <ele>140</ele>
        <time>2016-10-19T13:31:06Z</time>
      </trkpt>
      <trkpt lat="50.57912" lon="5.45792">
        <ele>138</ele>
        <time>2016-10-19T13:33:06Z</time>
      </trkpt>
      <trkpt lat="50.57914" lon="5.45806">
        <ele>137</ele>
        <time>2016-10-19T13:35:06Z</time>
      </trkpt>
      <trkpt lat="50.57952" lon="5.45843">
        <ele>132</ele>
        <time>2016-10-19T13:37:06Z</time>
      </trkpt>
      <trkpt lat="50.5802" lon="5.45966">
        <ele>130</ele>
        <time>2016-10-19T13:39:06Z</time>
      </trkpt>
      <trkpt lat="50.58038" lon="5.46017">
        <ele>129</ele>
        <time>2016-10-19T13:41:06Z</time>
      </trkpt>
      <trkpt lat="50.5808" lon="5.46118">
        <ele>131</ele>
        <time>2016-10-19T13:43:06Z</time>
      </trkpt>
      <trkpt lat="50.58139" lon="5.46194">
        <ele>129</ele>
        <time>2016-10-19T13:45:06Z</time>
      </trkpt>
      <trkpt lat="50.58151" lon="5.46215">
        <ele>129</ele>
        <time>2016-10-19T13:47:06Z</time>
      </trkpt>
      <trkpt lat="50.58152" lon="5.46227">
        <ele>130</ele>
        <time>2016-10-19T13:49:06Z</time>
      </trkpt>
      <trkpt lat="50.58101" lon="5.46196">
        <ele>136</ele>
        <time>2016-10-19T13:51:06Z</time>
      </trkpt>
      <trkpt lat="50.58078" lon="5.46176">
        <ele>138</ele>
        <time>2016-10-19T13:53:06Z</time>
      </trkpt>
      <trkpt lat="50.57985" lon="5.4604">
        <ele>146</ele>
        <time>2016-10-19T13:55:06Z</time>
      </trkpt>
      <trkpt lat="50.57944" lon="5.45966">
        <ele>149</ele>
        <time>2016-10-19T13:57:06Z</time>
      </trkpt>
      <trkpt lat="50.57928" lon="5.45936">
        <ele>149</ele>
        <time>2016-10-19T13:59:06Z</time>
      </trkpt>
      <trkpt lat="50.57904" lon="5.45908">
        <ele>148</ele>
        <time>2016-10-19T14:01:06Z</time>
      </trkpt>
      <trkpt lat="50.57886" lon="5.45899">
        <ele>148</ele>
        <time>2016-10-19T14:03:06Z</time>
      </trkpt>
      <trkpt lat="50.57853" lon="5.45899">
        <ele>151</ele>
        <time>2016-10-19T14:05:06Z</time>
      </trkpt>
      <trkpt lat="50.57785" lon="5.4593">
        <ele>160</ele>
        <time>2016-10-19T14:07:06Z</time>
      </trkpt>
      <trkpt lat="50.57744" lon="5.45958">
        <ele>163</ele>
        <time>2016-10-19T14:09:06Z</time>
      </trkpt>
      <trkpt lat="50.57737" lon="5.45967">
        <ele>165</ele>
        <time>2016-10-19T14:11:06Z</time>
      </trkpt>
      <trkpt lat="50.57731" lon="5.45987">
        <ele>166</ele>
        <time>2016-10-19T14:13:06Z</time>
      </trkpt>
      <trkpt lat="50.57727" lon="5.46046">
        <ele>171</ele>
        <time>2016-10-19T14:15:06Z</time>
      </trkpt>
      <trkpt lat="50.57716" lon="5.46063">
        <ele>173</ele>
        <time>2016-10-19T14:17:06Z</time>
      </trkpt>
      <trkpt lat="50.57698" lon="5.46067">
        <ele>174</ele>
        <time>2016-10-19T14:19:06Z</time>
      </trkpt>
      <trkpt lat="50.57688" lon="5.46064">
        <ele>175</ele>
        <time>2016-10-19T14:21:06Z</time>
      </trkpt>
      <trkpt lat="50.57671" lon="5.46049">
        <ele>175</ele>
        <time>2016-10-19T14:23:06Z</time>
      </trkpt>
      <trkpt lat="50.57603" lon="5.45947">
        <ele>177</ele>
        <time>2016-10-19T14:25:06Z</time>
      </trkpt>
      <trkpt lat="50.57581" lon="5.45925">
        <ele>178</ele>
        <time>2016-10-19T14:27:06Z</time>
      </trkpt>
      <trkpt lat="50.57568" lon="5.45919">
        <ele>179</ele>
        <time>2016-10-19T14:29:06Z</time>
      </trkpt>
      <trkpt lat="50.57524" lon="5.45917">
        <ele>183</ele>
        <time>2016-10-19T14:31:06Z</time>
      </trkpt>
      <trkpt lat="50.57359" lon="5.45952">
        <ele>195</ele>
        <time>2016-10-19T14:33:06Z</time>
      </trkpt>
      <trkpt lat="50.57305" lon="5.45949">
        <ele>198</ele>
        <time>2016-10-19T14:35:06Z</time>
      </trkpt>
      <trkpt lat="50.57256" lon="5.45934">
        <ele>201</ele>
        <time>2016-10-19T14:37:06Z</time>
      </trkpt>
      <trkpt lat="50.57194" lon="5.45905">
        <ele>205</ele>
        <time>2016-10-19T14:39:06Z</time>
      </trkpt>
      <trkpt lat="50.57031" lon="5.45775">
        <ele>211</ele>
        <time>2016-10-19T14:41:06Z</time>
      </trkpt>
      <trkpt lat="50.57004" lon="5.45761">
        <ele>211</ele>
        <time>2016-10-19T14:43:06Z</time>
      </trkpt>
      <trkpt lat="50.56983" lon="5.45757">
        <ele>212</ele>
        <time>2016-10-19T14:45:06Z</time>
      </trkpt>
      <trkpt lat="50.56917" lon="5.45765">
        <ele>214</ele>
        <time>2016-10-19T14:47:06Z</time>
      </trkpt>
      <trkpt lat="50.56697" lon="5.45825">
        <ele>223</ele>
        <time>2016-10-19T14:49:06Z</time>
      </trkpt>
      <trkpt lat="50.56647" lon="5.45835">
        <ele>225</ele>
        <time>2016-10-19T14:51:06Z</time>
      </trkpt>
      <trkpt lat="50.56609" lon="5.45834">
        <ele>226</ele>
        <time>2016-10-19T14:53:06Z</time>
      </trkpt>
      <trkpt lat="50.56559" lon="5.45809">
        <ele>226</ele>
        <time>2016-10-19T14:55:06Z</time>
      </trkpt>
      <trkpt lat="50.5637" lon="5.45679">
        <ele>228</ele>
        <time>2016-10-19T14:57:06Z</time>
      </trkpt>
      <trkpt lat="50.55786" lon="5.45306">
        <ele>235</ele>
        <time>2016-10-19T14:59:06Z</time>
      </trkpt>
      <trkpt lat="50.55347" lon="5.45132">
        <ele>233</ele>
        <time>2016-10-19T15:01:06Z</time>
      </trkpt>
      <trkpt lat="50.55244" lon="5.45119">
        <ele>228</ele>
        <time>2016-10-19T15:03:06Z</time>
      </trkpt>
      <trkpt lat="50.5524" lon="5.45164">
        <ele>227</ele>
        <time>2016-10-19T15:05:06Z</time>
      </trkpt>
      <trkpt lat="50.55233" lon="5.45173">
        <ele>227</ele>
        <time>2016-10-19T15:07:06Z</time>
      </trkpt>
      <trkpt lat="50.55157" lon="5.45217">
        <ele>223</ele>
        <time>2016-10-19T15:09:06Z</time>
      </trkpt>
      <trkpt lat="50.55127" lon="5.45227">
        <ele>221</ele>
        <time>2016-10-19T15:11:06Z</time>
      </trkpt>
      <trkpt lat="50.55067" lon="5.45219">
        <ele>217</ele>
        <time>2016-10-19T15:13:06Z</time>
      </trkpt>
      <trkpt lat="50.55055" lon="5.45222">
        <ele>216</ele>
        <time>2016-10-19T15:15:06Z</time>
      </trkpt>
      <trkpt lat="50.5504" lon="5.45243">
        <ele>215</ele>
        <time>2016-10-19T15:17:06Z</time>
      </trkpt>
      <trkpt lat="50.54739" lon="5.45519">
        <ele>223</ele>
        <time>2016-10-19T15:19:06Z</time>
      </trkpt>
      <trkpt lat="50.54553" lon="5.45682">
        <ele>237</ele>
        <time>2016-10-19T15:21:06Z</time>
      </trkpt>
      <trkpt lat="50.54247" lon="5.45962">
        <ele>252</ele>
        <time>2016-10-19T15:23:06Z</time>
      </trkpt>
      <trkpt lat="50.5418" lon="5.46014">
        <ele>253</ele>
        <time>2016-10-19T15:25:06Z</time>
      </trkpt>
      <trkpt lat="50.54154" lon="5.46045">
        <ele>253</ele>
        <time>2016-10-19T15:27:06Z</time>
      </trkpt>
      <trkpt lat="50.5412" lon="5.46129">
        <ele>254</ele>
        <time>2016-10-19T15:29:06Z</time>
      </trkpt>
      <trkpt lat="50.54113" lon="5.46132">
        <ele>255</ele>
        <time>2016-10-19T15:31:06Z</time>
      </trkpt>
      <trkpt lat="50.54075" lon="5.46191">
        <ele>255</ele>
        <time>2016-10-19T15:33:06Z</time>
      </trkpt>
      <trkpt lat="50.5406" lon="5.46228">
        <ele>255</ele>
        <time>2016-10-19T15:35:06Z</time>
      </trkpt>
      <trkpt lat="50.54055" lon="5.46257">
        <ele>255</ele>
        <time>2016-10-19T15:37:06Z</time>
      </trkpt>
      <trkpt lat="50.54057" lon="5.46269">
        <ele>255</ele>
        <time>2016-10-19T15:39:06Z</time>
      </trkpt>
      <trkpt lat="50.54048" lon="5.4636">
        <ele>255</ele>
        <time>2016-10-19T15:41:06Z</time>
      </trkpt>
      <trkpt lat="50.53998" lon="5.46555">
        <ele>257</ele>
        <time>2016-10-19T15:43:06Z</time>
      </trkpt>
      <trkpt lat="50.53962" lon="5.4675">
        <ele>262</ele>
        <time>2016-10-19T15:45:06Z</time>
      </trkpt>
      <trkpt lat="50.53894" lon="5.4717">
        <ele>270</ele>
        <time>2016-10-19T15:47:06Z</time>
      </trkpt>
      <trkpt lat="50.53882" lon="5.47234">
        <ele>270</ele>
        <time>2016-10-19T15:49:06Z</time>
      </trkpt>
      <trkpt lat="50.53856" lon="5.47313">
        <ele>269</ele>
        <time>2016-10-19T15:51:06Z</time>
      </trkpt>
      <trkpt lat="50.53846" lon="5.47362">
        <ele>268</ele>
        <time>2016-10-19T15:53:06Z</time>
      </trkpt>
      <trkpt lat="50.538" lon="5.47643">
        <ele>263</ele>
        <time>2016-10-19T15:55:06Z</time>
      </trkpt>
      <trkpt lat="50.53802" lon="5.47763">
        <ele>261</ele>
        <time>2016-10-19T15:57:06Z</time>
      </trkpt>
      <trkpt lat="50.53809" lon="5.4783">
        <ele>260</ele>
        <time>2016-10-19T15:59:06Z</time>
      </trkpt>
      <trkpt lat="50.53835" lon="5.4797">
        <ele>261</ele>
        <time>2016-10-19T16:01:06Z</time>
      </trkpt>
      <trkpt lat="50.53837" lon="5.47999">
        <ele>261</ele>
        <time>2016-10-19T16:03:06Z</time>
      </trkpt>
      <trkpt lat="50.5385" lon="5.48756">
        <ele>265</ele>
        <time>2016-10-19T16:05:06Z</time>
      </trkpt>
      <trkpt lat="50.53848" lon="5.48785">
        <ele>265</ele>
        <time>2016-10-19T16:07:06Z</time>
      </trkpt>
      <trkpt lat="50.53841" lon="5.48808">
        <ele>264</ele>
        <time>2016-10-19T16:09:06Z</time>
      </trkpt>
      <trkpt lat="50.53724" lon="5.49038">
        <ele>256</ele>
        <time>2016-10-19T16:11:06Z</time>
      </trkpt>
      <trkpt lat="50.53676" lon="5.49228">
        <ele>253</ele>
        <time>2016-10-19T16:13:06Z</time>
      </trkpt>
      <trkpt lat="50.53599" lon="5.49367">
        <ele>249</ele>
        <time>2016-10-19T16:15:06Z</time>
      </trkpt>
      <trkpt lat="50.53569" lon="5.49486">
        <ele>243</ele>
        <time>2016-10-19T16:17:06Z</time>
      </trkpt>
      <trkpt lat="50.53548" lon="5.49504">
        <ele>243</ele>
        <time>2016-10-19T16:19:06Z</time>
      </trkpt>
      <trkpt lat="50.53353" lon="5.49568">
        <ele>234</ele>
        <time>2016-10-19T16:21:06Z</time>
      </trkpt>
      <trkpt lat="50.53325" lon="5.49586">
        <ele>232</ele>
        <time>2016-10-19T16:23:06Z</time>
      </trkpt>
      <trkpt lat="50.53295" lon="5.49617">
        <ele>231</ele>
        <time>2016-10-19T16:25:06Z</time>
      </trkpt>
      <trkpt lat="50.53236" lon="5.49708">
        <ele>232</ele>
        <time>2016-10-19T16:27:06Z</time>
      </trkpt>
      <trkpt lat="50.5322" lon="5.49747">
        <ele>233</ele>
        <time>2016-10-19T16:29:06Z</time>
      </trkpt>
      <trkpt lat="50.53204" lon="5.49844">
        <ele>233</ele>
        <time>2016-10-19T16:31:06Z</time>
      </trkpt>
      <trkpt lat="50.53194" lon="5.4994">
        <ele>234</ele>
        <time>2016-10-19T16:33:06Z</time>
      </trkpt>
      <trkpt lat="50.53209" lon="5.50746">
        <ele>240</ele>
        <time>2016-10-19T16:35:06Z</time>
      </trkpt>
      <trkpt lat="50.53238" lon="5.50902">
        <ele>236</ele>
        <time>2016-10-19T16:37:06Z</time>
      </trkpt>
      <trkpt lat="50.5326" lon="5.50963">
        <ele>234</ele>
        <time>2016-10-19T16:39:06Z</time>
      </trkpt>
      <trkpt lat="50.53271" lon="5.51007">
        <ele>233</ele>
        <time>2016-10-19T16:41:06Z</time>
      </trkpt>
      <trkpt lat="50.53274" lon="5.51048">
        <ele>231</ele>
        <time>2016-10-19T16:43:06Z</time>
      </trkpt>
      <trkpt lat="50.53269" lon="5.51215">
        <ele>226</ele>
        <time>2016-10-19T16:45:06Z</time>
      </trkpt>
      <trkpt lat="50.53251" lon="5.51397">
        <ele>225</ele>
        <time>2016-10-19T16:47:06Z</time>
      </trkpt>
      <trkpt lat="50.53248" lon="5.51475">
        <ele>224</ele>
        <time>2016-10-19T16:49:06Z</time>
      </trkpt>
      <trkpt lat="50.53229" lon="5.51542">
        <ele>223</ele>
        <time>2016-10-19T16:51:06Z</time>
      </trkpt>
      <trkpt lat="50.53163" lon="5.51646">
        <ele>219</ele>
        <time>2016-10-19T16:53:06Z</time>
      </trkpt>
      <trkpt lat="50.53156" lon="5.51664">
        <ele>217</ele>
        <time>2016-10-19T16:55:06Z</time>
      </trkpt>
      <trkpt lat="50.53155" lon="5.51699">
        <ele>216</ele>
        <time>2016-10-19T16:57:06Z</time>
      </trkpt>
      <trkpt lat="50.53162" lon="5.51757">
        <ele>213</ele>
        <time>2016-10-19T16:59:06Z</time>
      </trkpt>
      <trkpt lat="50.53174" lon="5.51783">
        <ele>212</ele>
        <time>2016-10-19T17:01:06Z</time>
      </trkpt>
      <trkpt lat="50.53192" lon="5.51799">
        <ele>212</ele>
        <time>2016-10-19T17:03:06Z</time>
      </trkpt>
      <trkpt lat="50.53347" lon="5.51903">
        <ele>200</ele>
        <time>2016-10-19T17:05:06Z</time>
      </trkpt>
      <trkpt lat="50.53363" lon="5.51906">
        <ele>196</ele>
        <time>2016-10-19T17:07:06Z</time>
      </trkpt>
      <trkpt lat="50.53371" lon="5.51894">
        <ele>195</ele>
        <time>2016-10-19T17:09:06Z</time>
      </trkpt>
      <trkpt lat="50.53375" lon="5.51873">
        <ele>196</ele>
        <time>2016-10-19T17:11:06Z</time>
      </trkpt>
      <trkpt lat="50.53371" lon="5.51723">
        <ele>200</ele>
        <time>2016-10-19T17:13:06Z</time>
      </trkpt>
      <trkpt lat="50.53378" lon="5.51672">
        <ele>198</ele>
        <time>2016-10-19T17:15:06Z</time>
      </trkpt>
      <trkpt lat="50.53394" lon="5.51637">
        <ele>195</ele>
        <time>2016-10-19T17:17:06Z</time>
      </trkpt>
      <trkpt lat="50.53431" lon="5.51591">
        <ele>192</ele>
        <time>2016-10-19T17:19:06Z</time>
      </trkpt>
      <trkpt lat="50.53447" lon="5.5158">
        <ele>193</ele>
        <time>2016-10-19T17:21:06Z</time>
      </trkpt>
      <trkpt lat="50.53471" lon="5.51577">
        <ele>192</ele>
        <time>2016-10-19T17:23:06Z</time>
      </trkpt>
      <trkpt lat="50.5354" lon="5.51614">
        <ele>186</ele>
        <time>2016-10-19T17:25:06Z</time>
      </trkpt>
      <trkpt lat="50.53607" lon="5.51584">
        <ele>187</ele>
        <time>2016-10-19T17:27:06Z</time>
      </trkpt>
      <trkpt lat="50.53641" lon="5.51572">
        <ele>185</ele>
        <time>2016-10-19T17:29:06Z</time>
      </trkpt>
      <trkpt lat="50.53651" lon="5.51573">
        <ele>184</ele>
        <time>2016-10-19T17:31:06Z</time>
      </trkpt>
      <trkpt lat="50.53654" lon="5.51581">
        <ele>183</ele>
        <time>2016-10-19T17:33:06Z</time>
      </trkpt>
      <trkpt lat="50.53648" lon="5.51592">
        <ele>182</ele>
        <time>2016-10-19T17:35:06Z</time>
      </trkpt>
      <trkpt lat="50.53608" lon="5.51606">
        <ele>184</ele>
        <time>2016-10-19T17:37:06Z</time>
      </trkpt>
      <trkpt lat="50.53598" lon="5.51615">
        <ele>183</ele>
        <time>2016-10-19T17:39:06Z</time>
      </trkpt>
      <trkpt lat="50.53587" lon="5.51636">
        <ele>180</ele>
        <time>2016-10-19T17:41:06Z</time>
      </trkpt>
      <trkpt lat="50.5358" lon="5.51666">
        <ele>175</ele>
        <time>2016-10-19T17:43:06Z</time>
      </trkpt>
      <trkpt lat="50.53589" lon="5.51807">
        <ele>173</ele>
        <time>2016-10-19T17:45:06Z</time>
      </trkpt>
      <trkpt lat="50.536" lon="5.5187">
        <ele>176</ele>
        <time>2016-10-19T17:47:06Z</time>
      </trkpt>
      <trkpt lat="50.53545" lon="5.52029">
        <ele>167</ele>
        <time>2016-10-19T17:49:06Z</time>
      </trkpt>
      <trkpt lat="50.5353" lon="5.52062">
        <ele>167</ele>
        <time>2016-10-19T17:51:06Z</time>
      </trkpt>
      <trkpt lat="50.53413" lon="5.52142">
        <ele>167</ele>
        <time>2016-10-19T17:53:06Z</time>
      </trkpt>
      <trkpt lat="50.534" lon="5.52154">
        <ele>165</ele>
        <time>2016-10-19T17:55:06Z</time>
      </trkpt>
      <trkpt lat="50.5337" lon="5.52205">
        <ele>162</ele>
        <time>2016-10-19T17:57:06Z</time>
      </trkpt>
      <trkpt lat="50.53357" lon="5.52265">
        <ele>158</ele>
        <time>2016-10-19T17:59:06Z</time>
      </trkpt>
      <trkpt lat="50.53349" lon="5.52441">
        <ele>153</ele>
        <time>2016-10-19T18:01:06Z</time>
      </trkpt>
      <trkpt lat="50.53336" lon="5.52466">
        <ele>149</ele>
        <time>2016-10-19T18:03:06Z</time>
      </trkpt>
      <trkpt lat="50.53314" lon="5.52481">
        <ele>148</ele>
        <time>2016-10-19T18:05:06Z</time>
      </trkpt>
      <trkpt lat="50.53249" lon="5.52509">
        <ele>144</ele>
        <time>2016-10-19T18:07:06Z</time>
      </trkpt>
      <trkpt lat="50.53189" lon="5.52525">
        <ele>144</ele>
        <time>2016-10-19T18:09:06Z</time>
      </trkpt>
      <trkpt lat="50.53164" lon="5.52539">
        <ele>144</ele>
        <time>2016-10-19T18:11:06Z</time>
      </trkpt>
      <trkpt lat="50.53135" lon="5.52582">
        <ele>146</ele>
        <time>2016-10-19T18:13:06Z</time>
      </trkpt>
      <trkpt lat="50.53091" lon="5.52713">
        <ele>143</ele>
        <time>2016-10-19T18:15:06Z</time>
      </trkpt>
      <trkpt lat="50.53038" lon="5.5281">
        <ele>146</ele>
        <time>2016-10-19T18:17:06Z</time>
      </trkpt>
      <trkpt lat="50.52955" lon="5.5289">
        <ele>146</ele>
        <time>2016-10-19T18:19:06Z</time>
      </trkpt>
      <trkpt lat="50.52869" lon="5.52948">
        <ele>139</ele>
        <time>2016-10-19T18:21:06Z</time>
      </trkpt>
      <trkpt lat="50.52791" lon="5.53027">
        <ele>127</ele>
        <time>2016-10-19T18:23:06Z</time>
      </trkpt>
      <trkpt lat="50.52802" lon="5.53287">
        <ele>130</ele>
        <time>2016-10-19T18:25:06Z</time>
      </trkpt>
      <trkpt lat="50.52848" lon="5.53546">
        <ele>128</ele>
        <time>2016-10-19T18:27:06Z</time>
      </trkpt>
      <trkpt lat="50.52866" lon="5.53605">
        <ele>129</ele>
        <time>2016-10-19T18:29:06Z</time>
      </trkpt>
      <trkpt lat="50.52874" lon="5.53622">
        <ele>129</ele>
        <time>2016-10-19T18:31:06Z</time>
      </trkpt>
      <trkpt lat="50.52907" lon="5.53663">
        <ele>128</ele>
        <time>2016-10-19T18:33:06Z</time>
      </trkpt>
      <trkpt lat="50.52936" lon="5.53685">
        <ele>131</ele>
        <time>2016-10-19T18:35:06Z</time>
      </trkpt>
      <trkpt lat="50.53066" lon="5.53761">
        <ele>136</ele>
        <time>2016-10-19T18:37:06Z</time>
      </trkpt>
      <trkpt lat="50.531" lon="5.53787">
        <ele>135</ele>
        <time>2016-10-19T18:39:06Z</time>
      </trkpt>
      <trkpt lat="50.53118" lon="5.5381">
        <ele>135</ele>
        <time>2016-10-19T18:41:06Z</time>
      </trkpt>
      <trkpt lat="50.53147" lon="5.53902">
        <ele>130</ele>
        <time>2016-10-19T18:43:06Z</time>
      </trkpt>
      <trkpt lat="50.53204" lon="5.54158">
        <ele>122</ele>
        <time>2016-10-19T18:45:06Z</time>
      </trkpt>
      <trkpt lat="50.53208" lon="5.5419">
        <ele>125</ele>
        <time>2016-10-19T18:47:06Z</time>
      </trkpt>
      <trkpt lat="50.53201" lon="5.54238">
        <ele>128</ele>
        <time>2016-10-19T18:49:06Z</time>
      </trkpt>
      <trkpt lat="50.53181" lon="5.54274">
        <ele>126</ele>
        <time>2016-10-19T18:51:06Z</time>
      </trkpt>
      <trkpt lat="50.53148" lon="5.5429">
        <ele>121</ele>
        <time>2016-10-19T18:53:06Z</time>
      </trkpt>
      <trkpt lat="50.5311" lon="5.5429">
        <ele>116</ele>
        <time>2016-10-19T18:55:06Z</time>
      </trkpt>
      <trkpt lat="50.53089" lon="5.54296">
        <ele>113</ele>
        <time>2016-10-19T18:57:06Z</time>
      </trkpt>
      <trkpt lat="50.53075" lon="5.54308">
        <ele>113</ele>
        <time>2016-10-19T18:59:06Z</time>
      </trkpt>
      <trkpt lat="50.5307" lon="5.54318">
        <ele>114</ele>
        <time>2016-10-19T19:01:06Z</time>
      </trkpt>
      <trkpt lat="50.53067" lon="5.54347">
        <ele>114</ele>
        <time>2016-10-19T19:03:06Z</time>
      </trkpt>
      <trkpt lat="50.53184" lon="5.54827">
        <ele>112</ele>
        <time>2016-10-19T19:05:06Z</time>
      </trkpt>
      <trkpt lat="50.53206" lon="5.54897">
        <ele>115</ele>
        <time>2016-10-19T19:07:06Z</time>
      </trkpt>
      <trkpt lat="50.53302" lon="5.55144">
        <ele>107</ele>
        <time>2016-10-19T19:09:06Z</time>
      </trkpt>
      <trkpt lat="50.53309" lon="5.55166">
        <ele>106</ele>
        <time>2016-10-19T19:11:06Z</time>
      </trkpt>
      <trkpt lat="50.53312" lon="5.55193">
        <ele>104</ele>
        <time>2016-10-19T19:13:06Z</time>
      </trkpt>
      <trkpt lat="50.53311" lon="5.55224">
        <ele>102</ele>
        <time>2016-10-19T19:15:06Z</time>
      </trkpt>
      <trkpt lat="50.53294" lon="5.55355">
        <ele>95</ele>
        <time>2016-10-19T19:17:06Z</time>
      </trkpt>
      <trkpt lat="50.53277" lon="5.55436">
        <ele>94</ele>
        <time>2016-10-19T19:19:06Z</time>
      </trkpt>
      <trkpt lat="50.53209" lon="5.5557">
        <ele>106</ele>
        <time>2016-10-19T19:21:06Z</time>
      </trkpt>
      <trkpt lat="50.53198" lon="5.55613">
        <ele>108</ele>
        <time>2016-10-19T19:23:06Z</time>
      </trkpt>
      <trkpt lat="50.53154" lon="5.56032">
        <ele>100</ele>
        <time>2016-10-19T19:25:06Z</time>
      </trkpt>
      <trkpt lat="50.53148" lon="5.56117">
        <ele>95</ele>
        <time>2016-10-19T19:27:06Z</time>
      </trkpt>
      <trkpt lat="50.53148" lon="5.56174">
        <ele>91</ele>
        <time>2016-10-19T19:29:06Z</time>
      </trkpt>
      <trkpt lat="50.53159" lon="5.56277">
        <ele>89</ele>
        <time>2016-10-19T19:31:06Z</time>
      </trkpt>
      <trkpt lat="50.53182" lon="5.56584">
        <ele>88</ele>
        <time>2016-10-19T19:33:06Z</time>
      </trkpt>
      <trkpt lat="50.53179" lon="5.56695">
        <ele>89</ele>
        <time>2016-10-19T19:35:06Z</time>
      </trkpt>
      <trkpt lat="50.5326" lon="5.56702">
        <ele>90</ele>
        <time>2016-10-19T19:37:06Z</time>
      </trkpt>
      <trkpt lat="50.53288" lon="5.56688">
        <ele>92</ele>
        <time>2016-10-19T19:39:06Z</time>
      </trkpt>
      <trkpt lat="50.53388" lon="5.56578">
        <ele>95</ele>
        <time>2016-10-19T19:41:06Z</time>
      </trkpt>
      <trkpt lat="50.53407" lon="5.56568">
        <ele>96</ele>
        <time>2016-10-19T19:43:06Z</time>
      </trkpt>
      <trkpt lat="50.53425" lon="5.5657">
        <ele>98</ele>
        <time>2016-10-19T19:45:06Z</time>
      </trkpt>
      <trkpt lat="50.53493" lon="5.56618">
        <ele>108</ele>
        <time>2016-10-19T19:47:06Z</time>
      </trkpt>
      <trkpt lat="50.5354" lon="5.56643">
        <ele>112</ele>
        <time>2016-10-19T19:49:06Z</time>
      </trkpt>
      <trkpt lat="50.53547" lon="5.5665">
        <ele>112</ele>
        <time>2016-10-19T19:51:06Z</time>
      </trkpt>
      <trkpt lat="50.53552" lon="5.56664">
        <ele>112</ele>
        <time>2016-10-19T19:53:06Z</time>
      </trkpt>
      <trkpt lat="50.53571" lon="5.56712">
        <ele>114</ele>
        <time>2016-10-19T19:55:06Z</time>
      </trkpt>
      <trkpt lat="50.53591" lon="5.56778">
        <ele>116</ele>
        <time>2016-10-19T19:57:06Z</time>
      </trkpt>
      <trkpt lat="50.53612" lon="5.56906">
        <ele>120</ele>
        <time>2016-10-19T19:59:06Z</time>
      </trkpt>
      <trkpt lat="50.53615" lon="5.56964">
        <ele>121</ele>
        <time>2016-10-19T20:01:06Z</time>
      </trkpt>
      <trkpt lat="50.53656" lon="5.57362">
        <ele>134</ele>
        <time>2016-10-19T20:03:06Z</time>
      </trkpt>
      <trkpt lat="50.53697" lon="5.57698">
        <ele>131</ele>
        <time>2016-10-19T20:05:06Z</time>
      </trkpt>
      <trkpt lat="50.5372" lon="5.57844">
        <ele>128</ele>
        <time>2016-10-19T20:07:06Z</time>
      </trkpt>
      <trkpt lat="50.53721" lon="5.57907">
        <ele>125</ele>
        <time>2016-10-19T20:09:06Z</time>
      </trkpt>
      <trkpt lat="50.53711" lon="5.57938">
        <ele>125</ele>
        <time>2016-10-19T20:11:06Z</time>
      </trkpt>
      <trkpt lat="50.53689" lon="5.57986">
        <ele>127</ele>
        <time>2016-10-19T20:13:06Z</time>
      </trkpt>
      <trkpt lat="50.53684" lon="5.58026">
        <ele>128</ele>
        <time>2016-10-19T20:15:06Z</time>
      </trkpt>
      <trkpt lat="50.53783" lon="5.58415">
        <ele>119</ele>
        <time>2016-10-19T20:17:06Z</time>
      </trkpt>
      <trkpt lat="50.53798" lon="5.58452">
        <ele>117</ele>
        <time>2016-10-19T20:19:06Z</time>
      </trkpt>
      <trkpt lat="50.53885" lon="5.58591">
        <ele>108</ele>
        <time>2016-10-19T20:21:06Z</time>
      </trkpt>
      <trkpt lat="50.53982" lon="5.58731">
        <ele>102</ele>
        <time>2016-10-19T20:23:06Z</time>
      </trkpt>
      <trkpt lat="50.54082" lon="5.58891">
        <ele>95</ele>
        <time>2016-10-19T20:25:06Z</time>
      </trkpt>
      <trkpt lat="50.54294" lon="5.59113">
        <ele>96</ele>
        <time>2016-10-19T20:27:06Z</time>
      </trkpt>
      <trkpt lat="50.54326" lon="5.59131">
        <ele>97</ele>
        <time>2016-10-19T20:29:06Z</time>
      </trkpt>
      <trkpt lat="50.54355" lon="5.59137">
        <ele>96</ele>
        <time>2016-10-19T20:31:06Z</time>
      </trkpt>
      <trkpt lat="50.54491" lon="5.5913">
        <ele>88</ele>
        <time>2016-10-19T20:33:06Z</time>
      </trkpt>
      <trkpt lat="50.54526" lon="5.59133">
        <ele>88</ele>
        <time>2016-10-19T20:35:06Z</time>
      </trkpt>
      <trkpt lat="50.54591" lon="5.5915">
        <ele>89</ele>
        <time>2016-10-19T20:37:06Z</time>
      </trkpt>
      <trkpt lat="50.54616" lon="5.59146">
        <ele>88</ele>
        <time>2016-10-19T20:39:06Z</time>
      </trkpt>
      <trkpt lat="50.54668" lon="5.59111">
        <ele>83</ele>
        <time>2016-10-19T20:41:06Z</time>
      </trkpt>
      <trkpt lat="50.54684" lon="5.59174">
        <ele>87</ele>
        <time>2016-10-19T20:43:06Z</time>
      </trkpt>
      <trkpt lat="50.54687" lon="5.59207">
        <ele>92</ele>
        <time>2016-10-19T20:45:06Z</time>
      </trkpt>
      <trkpt lat="50.54686" lon="5.59342">
        <ele>109</ele>
        <time>2016-10-19T20:47:06Z</time>
      </trkpt>
      <trkpt lat="50.54682" lon="5.59379">
        <ele>109</ele>
        <time>2016-10-19T20:49:06Z</time>
      </trkpt>
      <trkpt lat="50.54634" lon="5.59553">
        <ele>119</ele>
        <time>2016-10-19T20:51:06Z</time>
      </trkpt>
      <trkpt lat="50.54629" lon="5.59581">
        <ele>120</ele>
        <time>2016-10-19T20:53:06Z</time>
      </trkpt>
      <trkpt lat="50.54628" lon="5.5962">
        <ele>120</ele>
        <time>2016-10-19T20:55:06Z</time>
      </trkpt>
      <trkpt lat="50.54631" lon="5.59675">
        <ele>119</ele>
        <time>2016-10-19T20:57:06Z</time>
      </trkpt>
      <trkpt lat="50.54637" lon="5.59717">
        <ele>120</ele>
        <time>2016-10-19T20:59:06Z</time>
      </trkpt>
      <trkpt lat="50.54661" lon="5.59789">
        <ele>115</ele>
        <time>2016-10-19T21:01:06Z</time>
      </trkpt>
      <trkpt lat="50.5466" lon="5.59821">
        <ele>116</ele>
        <time>2016-10-19T21:03:06Z</time>
      </trkpt>
      <trkpt lat="50.54591" lon="5.60113">
        <ele>133</ele>
        <time>2016-10-19T21:05:06Z</time>
      </trkpt>
      <trkpt lat="50.54584" lon="5.60131">
        <ele>132</ele>
        <time>2016-10-19T21:07:06Z</time>
      </trkpt>
      <trkpt lat="50.54575" lon="5.60142">
        <ele>132</ele>
        <time>2016-10-19T21:09:06Z</time>
      </trkpt>
      <trkpt lat="50.54554" lon="5.60152">
        <ele>136</ele>
        <time>2016-10-19T21:11:06Z</time>
      </trkpt>
      <trkpt lat="50.54491" lon="5.60139">
        <ele>149</ele>
        <time>2016-10-19T21:13:06Z</time>
      </trkpt>
      <trkpt lat="50.54441" lon="5.60122">
        <ele>154</ele>
        <time>2016-10-19T21:15:06Z</time>
      </trkpt>
      <trkpt lat="50.54424" lon="5.60124">
        <ele>155</ele>
        <time>2016-10-19T21:17:06Z</time>
      </trkpt>
      <trkpt lat="50.54375" lon="5.60172">
        <ele>155</ele>
        <time>2016-10-19T21:19:06Z</time>
      </trkpt>
      <trkpt lat="50.54359" lon="5.60205">
        <ele>157</ele>
        <time>2016-10-19T21:21:06Z</time>
      </trkpt>
      <trkpt lat="50.54347" lon="5.60242">
        <ele>158</ele>
        <time>2016-10-19T21:23:06Z</time>
      </trkpt>
      <trkpt lat="50.54329" lon="5.60331">
        <ele>159</ele>
        <time>2016-10-19T21:25:06Z</time>
      </trkpt>
      <trkpt lat="50.54331" lon="5.60448">
        <ele>158</ele>
        <time>2016-10-19T21:27:06Z</time>
      </trkpt>
      <trkpt lat="50.54324" lon="5.60489">
        <ele>159</ele>
        <time>2016-10-19T21:29:06Z</time>
      </trkpt>
      <trkpt lat="50.54289" lon="5.6063">
        <ele>164</ele>
        <time>2016-10-19T21:31:06Z</time>
      </trkpt>
      <trkpt lat="50.54279" lon="5.60829">
        <ele>164</ele>
        <time>2016-10-19T21:33:06Z</time>
      </trkpt>
      <trkpt lat="50.5427" lon="5.60868">
        <ele>166</ele>
        <time>2016-10-19T21:35:06Z</time>
      </trkpt>
      <trkpt lat="50.54255" lon="5.60895">
        <ele>168</ele>
        <time>2016-10-19T21:37:06Z</time>
      </trkpt>
      <trkpt lat="50.5424" lon="5.60908">
        <ele>170</ele>
        <time>2016-10-19T21:39:06Z</time>
      </trkpt>
      <trkpt lat="50.54225" lon="5.60914">
        <ele>171</ele>
        <time>2016-10-19T21:41:06Z</time>
      </trkpt>
      <trkpt lat="50.54131" lon="5.60914">
        <ele>174</ele>
        <time>2016-10-19T21:43:06Z</time>
      </trkpt>
      <trkpt lat="50.54149" lon="5.60937">
        <ele>176</ele>
        <time>2016-10-19T21:45:06Z</time>
      </trkpt>
      <trkpt lat="50.54196" lon="5.60944">
        <ele>175</ele>
        <time>2016-10-19T21:47:06Z</time>
      </trkpt>
      <trkpt lat="50.54214" lon="5.60958">
        <ele>175</ele>
        <time>2016-10-19T21:49:06Z</time>
      </trkpt>
      <trkpt lat="50.54253" lon="5.61036">
        <ele>179</ele>
        <time>2016-10-19T21:51:06Z</time>
      </trkpt>
      <trkpt lat="50.54312" lon="5.61107">
        <ele>182</ele>
        <time>2016-10-19T21:53:06Z</time>
      </trkpt>
      <trkpt lat="50.54326" lon="5.61148">
        <ele>185</ele>
        <time>2016-10-19T21:55:06Z</time>
      </trkpt>
      <trkpt lat="50.54343" lon="5.61241">
        <ele>188</ele>
        <time>2016-10-19T21:57:06Z</time>
      </trkpt>
      <trkpt lat="50.54362" lon="5.61303">
        <ele>191</ele>
        <time>2016-10-19T21:59:06Z</time>
      </trkpt>
      <trkpt lat="50.54388" lon="5.61349">
        <ele>193</ele>
        <time>2016-10-19T22:01:06Z</time>
      </trkpt>
      <trkpt lat="50.5446" lon="5.61453">
        <ele>200</ele>
        <time>2016-10-19T22:03:06Z</time>
      </trkpt>
      <trkpt lat="50.54488" lon="5.61542">
        <ele>202</ele>
        <time>2016-10-19T22:05:06Z</time>
      </trkpt>
      <trkpt lat="50.54513" lon="5.61634">
        <ele>203</ele>
        <time>2016-10-19T22:07:06Z</time>
      </trkpt>
      <trkpt lat="50.54508" lon="5.61679">
        <ele>203</ele>
        <time>2016-10-19T22:09:06Z</time>
      </trkpt>
      <trkpt lat="50.5446" lon="5.61861">
        <ele>207</ele>
        <time>2016-10-19T22:11:06Z</time>
      </trkpt>
      <trkpt lat="50.54401" lon="5.6206">
        <ele>216</ele>
        <time>2016-10-19T22:13:06Z</time>
      </trkpt>
      <trkpt lat="50.5438" lon="5.62119">
        <ele>220</ele>
        <time>2016-10-19T22:15:06Z</time>
      </trkpt>
      <trkpt lat="50.54354" lon="5.62162">
        <ele>224</ele>
        <time>2016-10-19T22:17:06Z</time>
      </trkpt>
      <trkpt lat="50.54309" lon="5.62212">
        <ele>226</ele>
        <time>2016-10-19T22:19:06Z</time>
      </trkpt>
      <trkpt lat="50.5429" lon="5.62263">
        <ele>225</ele>
        <time>2016-10-19T22:21:06Z</time>
      </trkpt>
      <trkpt lat="50.54272" lon="5.62337">
        <ele>225</ele>
        <time>2016-10-19T22:23:06Z</time>
      </trkpt>
      <trkpt lat="50.54252" lon="5.62469">
        <ele>228</ele>
        <time>2016-10-19T22:25:06Z</time>
      </trkpt>
      <trkpt lat="50.54249" lon="5.62595">
        <ele>230</ele>
        <time>2016-10-19T22:27:06Z</time>
      </trkpt>
      <trkpt lat="50.54264" lon="5.62724">
        <ele>232</ele>
        <time>2016-10-19T22:29:06Z</time>
      </trkpt>
      <trkpt lat="50.54258" lon="5.62799">
        <ele>233</ele>
        <time>2016-10-19T22:31:06Z</time>
      </trkpt>
      <trkpt lat="50.54266" lon="5.62967">
        <ele>234</ele>
        <time>2016-10-19T22:33:06Z</time>
      </trkpt>
      <trkpt lat="50.5427" lon="5.63001">
        <ele>234</ele>
        <time>2016-10-19T22:35:06Z</time>
      </trkpt>
      <trkpt lat="50.54318" lon="5.63233">
        <ele>239</ele>
        <time>2016-10-19T22:37:06Z</time>
      </trkpt>
      <trkpt lat="50.5432" lon="5.6329">
        <ele>242</ele>
        <time>2016-10-19T22:39:06Z</time>
      </trkpt>
      <trkpt lat="50.54298" lon="5.63539">
        <ele>250</ele>
        <time>2016-10-19T22:41:06Z</time>
      </trkpt>
      <trkpt lat="50.54271" lon="5.63703">
        <ele>251</ele>
        <time>2016-10-19T22:43:06Z</time>
      </trkpt>
      <trkpt lat="50.54258" lon="5.63866">
        <ele>253</ele>
        <time>2016-10-19T22:45:06Z</time>
      </trkpt>
      <trkpt lat="50.54221" lon="5.63975">
        <ele>254</ele>
        <time>2016-10-19T22:47:06Z</time>
      </trkpt>
      <trkpt lat="50.54219" lon="5.6399">
        <ele>254</ele>
        <time>2016-10-19T22:49:06Z</time>
      </trkpt>
      <trkpt lat="50.54216" lon="5.64168">
        <ele>263</ele>
        <time>2016-10-19T22:51:06Z</time>
      </trkpt>
      <trkpt lat="50.54211" lon="5.64204">
        <ele>264</ele>
        <time>2016-10-19T22:53:06Z</time>
      </trkpt>
      <trkpt lat="50.54195" lon="5.64237">
        <ele>264</ele>
        <time>2016-10-19T22:55:06Z</time>
      </trkpt>
      <trkpt lat="50.54186" lon="5.64244">
        <ele>264</ele>
        <time>2016-10-19T22:57:06Z</time>
      </trkpt>
      <trkpt lat="50.54105" lon="5.64269">
        <ele>260</ele>
        <time>2016-10-19T22:59:06Z</time>
      </trkpt>
      <trkpt lat="50.54079" lon="5.64283">
        <ele>259</ele>
        <time>2016-10-19T23:01:06Z</time>
      </trkpt>
      <trkpt lat="50.54042" lon="5.64312">
        <ele>258</ele>
        <time>2016-10-19T23:03:06Z</time>
      </trkpt>
      <trkpt lat="50.53981" lon="5.64378">
        <ele>254</ele>
        <time>2016-10-19T23:05:06Z</time>
      </trkpt>
      <trkpt lat="50.53923" lon="5.64446">
        <ele>248</ele>
        <time>2016-10-19T23:07:06Z</time>
      </trkpt>
      <trkpt lat="50.53927" lon="5.64491">
        <ele>248</ele>
        <time>2016-10-19T23:09:06Z</time>
      </trkpt>
      <trkpt lat="50.5393" lon="5.64611">
        <ele>250</ele>
        <time>2016-10-19T23:11:06Z</time>
      </trkpt>
      <trkpt lat="50.5394" lon="5.65264">
        <ele>257</ele>
        <time>2016-10-19T23:13:06Z</time>
      </trkpt>
      <trkpt lat="50.53984" lon="5.65459">
        <ele>258</ele>
        <time>2016-10-19T23:15:06Z</time>
      </trkpt>
      <trkpt lat="50.54049" lon="5.65776">
        <ele>247</ele>
        <time>2016-10-19T23:17:06Z</time>
      </trkpt>
      <trkpt lat="50.54083" lon="5.6602">
        <ele>241</ele>
        <time>2016-10-19T23:19:06Z</time>
      </trkpt>
      <trkpt lat="50.54102" lon="5.6611">
        <ele>240</ele>
        <time>2016-10-19T23:21:06Z</time>
      </trkpt>
      <trkpt lat="50.54122" lon="5.66178">
        <ele>240</ele>
        <time>2016-10-19T23:23:06Z</time>
      </trkpt>
      <trkpt lat="50.54155" lon="5.66259">
        <ele>242</ele>
        <time>2016-10-19T23:25:06Z</time>
      </trkpt>
      <trkpt lat="50.54208" lon="5.66354">
        <ele>246</ele>
        <time>2016-10-19T23:27:06Z</time>
      </trkpt>
      <trkpt lat="50.54287" lon="5.66483">
        <ele>256</ele>
        <time>2016-10-19T23:29:06Z</time>
      </trkpt>
      <trkpt lat="50.54292" lon="5.66498">
        <ele>256</ele>
        <time>2016-10-19T23:31:06Z</time>
      </trkpt>
      <trkpt lat="50.54459" lon="5.66761">
        <ele>266</ele>
        <time>2016-10-19T23:33:06Z</time>
      </trkpt>
      <trkpt lat="50.54469" lon="5.6677">
        <ele>266</ele>
        <time>2016-10-19T23:35:06Z</time>
      </trkpt>
      <trkpt lat="50.54531" lon="5.66864">
        <ele>270</ele>
        <time>2016-10-19T23:37:06Z</time>
      </trkpt>
      <trkpt lat="50.54601" lon="5.66941">
        <ele>277</ele>
        <time>2016-10-19T23:39:06Z</time>
      </trkpt>
      <trkpt lat="50.54737" lon="5.67063">
        <ele>287</ele>
        <time>2016-10-19T23:41:06Z</time>
      </trkpt>
      <trkpt lat="50.54713" lon="5.67127">
        <ele>284</ele>
        <time>2016-10-19T23:43:06Z</time>
      </trkpt>
      <trkpt lat="50.54633" lon="5.67343">
        <ele>277</ele>
        <time>2016-10-19T23:45:06Z</time>
      </trkpt>
      <trkpt lat="50.54573" lon="5.67476">
        <ele>273</ele>
        <time>2016-10-19T23:47:06Z</time>
      </trkpt>
      <trkpt lat="50.54551" lon="5.67517">
        <ele>273</ele>
        <time>2016-10-19T23:49:06Z</time>
      </trkpt>
      <trkpt lat="50.54443" lon="5.67666">
        <ele>263</ele>
        <time>2016-10-19T23:51:06Z</time>
      </trkpt>
      <trkpt lat="50.54433" lon="5.677">
        <ele>261</ele>
        <time>2016-10-19T23:53:06Z</time>
      </trkpt>
      <trkpt lat="50.54432" lon="5.68216">
        <ele>236</ele>
        <time>2016-10-19T23:55:06Z</time>
      </trkpt>
      <trkpt lat="50.54428" lon="5.68246">
        <ele>232</ele>
        <time>2016-10-19T23:57:06Z</time>
      </trkpt>
      <trkpt lat="50.54413" lon="5.68308">
        <ele>225</ele>
        <time>2016-10-19T23:59:06Z</time>
      </trkpt>
      <trkpt lat="50.54392" lon="5.68368">
        <ele>220</ele>
        <time>2016-10-20T00:01:06Z</time>
      </trkpt>
      <trkpt lat="50.54351" lon="5.6845">
        <ele>211</ele>
        <time>2016-10-20T00:03:06Z</time>
      </trkpt>
      <trkpt lat="50.5435" lon="5.6847">
        <ele>210</ele>
        <time>2016-10-20T00:05:06Z</time>
      </trkpt>
      <trkpt lat="50.54382" lon="5.68675">
        <ele>201</ele>
        <time>2016-10-20T00:07:06Z</time>
      </trkpt>
      <trkpt lat="50.54409" lon="5.69031">
        <ele>182</ele>
        <time>2016-10-20T00:09:06Z</time>
      </trkpt>
      <trkpt lat="50.544" lon="5.69117">
        <ele>179</ele>
        <time>2016-10-20T00:11:06Z</time>
      </trkpt>
      <trkpt lat="50.54392" lon="5.69137">
        <ele>178</ele>
        <time>2016-10-20T00:13:06Z</time>
      </trkpt>
      <trkpt lat="50.54369" lon="5.69185">
        <ele>178</ele>
        <time>2016-10-20T00:15:06Z</time>
      </trkpt>
      <trkpt lat="50.5434" lon="5.69221">
        <ele>181</ele>
        <time>2016-10-20T00:17:06Z</time>
      </trkpt>
      <trkpt lat="50.54322" lon="5.69236">
        <ele>183</ele>
        <time>2016-10-20T00:19:06Z</time>
      </trkpt>
      <trkpt lat="50.54215" lon="5.69294">
        <ele>191</ele>
        <time>2016-10-20T00:21:06Z</time>
      </trkpt>
      <trkpt lat="50.54186" lon="5.693">
        <ele>193</ele>
        <time>2016-10-20T00:23:06Z</time>
      </trkpt>
      <trkpt lat="50.54108" lon="5.69283">
        <ele>200</ele>
        <time>2016-10-20T00:25:06Z</time>
      </trkpt>
      <trkpt lat="50.54007" lon="5.6925">
        <ele>208</ele>
        <time>2016-10-20T00:27:06Z</time>
      </trkpt>
      <trkpt lat="50.53881" lon="5.69182">
        <ele>198</ele>
        <time>2016-10-20T00:29:06Z</time>
      </trkpt>
      <trkpt lat="50.53835" lon="5.69165">
        <ele>197</ele>
        <time>2016-10-20T00:31:06Z</time>
      </trkpt>
      <trkpt lat="50.53802" lon="5.69168">
        <ele>199</ele>
        <time>2016-10-20T00:33:06Z</time>
      </trkpt>
      <trkpt lat="50.53758" lon="5.69196">
        <ele>204</ele>
        <time>2016-10-20T00:35:06Z</time>
      </trkpt>
      <trkpt lat="50.53715" lon="5.69251">
        <ele>209</ele>
        <time>2016-10-20T00:37:06Z</time>
      </trkpt>
      <trkpt lat="50.53693" lon="5.693">
        <ele>209</ele>
        <time>2016-10-20T00:39:06Z</time>
      </trkpt>
      <trkpt lat="50.53671" lon="5.69369">
        <ele>206</ele>
        <time>2016-10-20T00:41:06Z</time>
      </trkpt>
      <trkpt lat="50.53634" lon="5.69537">
        <ele>209</ele>
        <time>2016-10-20T00:43:06Z</time>
      </trkpt>
      <trkpt lat="50.53622" lon="5.69605">
        <ele>210</ele>
        <time>2016-10-20T00:45:06Z</time>
      </trkpt>
      <trkpt lat="50.53616" lon="5.69663">
        <ele>211</ele>
        <time>2016-10-20T00:47:06Z</time>
      </trkpt>
      <trkpt lat="50.53618" lon="5.69749">
        <ele>211</ele>
        <time>2016-10-20T00:49:06Z</time>
      </trkpt>
      <trkpt lat="50.53612" lon="5.69868">
        <ele>210</ele>
        <time>2016-10-20T00:51:06Z</time>
      </trkpt>
      <trkpt lat="50.53582" lon="5.69902">
        <ele>200</ele>
        <time>2016-10-20T00:53:06Z</time>
      </trkpt>
      <trkpt lat="50.53569" lon="5.6991">
        <ele>200</ele>
        <time>2016-10-20T00:55:06Z</time>
      </trkpt>
      <trkpt lat="50.53533" lon="5.6986">
        <ele>200</ele>
        <time>2016-10-20T00:57:06Z</time>
      </trkpt>
      <trkpt lat="50.53499" lon="5.69835">
        <ele>201</ele>
        <time>2016-10-20T00:59:06Z</time>
      </trkpt>
      <trkpt lat="50.53475" lon="5.69822">
        <ele>202</ele>
        <time>2016-10-20T01:01:06Z</time>
      </trkpt>
      <trkpt lat="50.53427" lon="5.69811">
        <ele>205</ele>
        <time>2016-10-20T01:03:06Z</time>
      </trkpt>
      <trkpt lat="50.53414" lon="5.69798">
        <ele>206</ele>
        <time>2016-10-20T01:05:06Z</time>
      </trkpt>
      <trkpt lat="50.53412" lon="5.69785">
        <ele>206</ele>
        <time>2016-10-20T01:07:06Z</time>
      </trkpt>
      <trkpt lat="50.53424" lon="5.69689">
        <ele>210</ele>
        <time>2016-10-20T01:09:06Z</time>
      </trkpt>
      <trkpt lat="50.53423" lon="5.69649">
        <ele>210</ele>
        <time>2016-10-20T01:11:06Z</time>
      </trkpt>
      <trkpt lat="50.53403" lon="5.69571">
        <ele>210</ele>
        <time>2016-10-20T01:13:06Z</time>
      </trkpt>
      <trkpt lat="50.53388" lon="5.69538">
        <ele>211</ele>
        <time>2016-10-20T01:15:06Z</time>
      </trkpt>
      <trkpt lat="50.53371" lon="5.69466">
        <ele>213</ele>
        <time>2016-10-20T01:17:06Z</time>
      </trkpt>
      <trkpt lat="50.53362" lon="5.69443">
        <ele>213</ele>
        <time>2016-10-20T01:19:06Z</time>
      </trkpt>
      <trkpt lat="50.5334" lon="5.6941">
        <ele>215</ele>
        <time>2016-10-20T01:21:06Z</time>
      </trkpt>
      <trkpt lat="50.53319" lon="5.6933">
        <ele>216</ele>
        <time>2016-10-20T01:23:06Z</time>
      </trkpt>
      <trkpt lat="50.53291" lon="5.6931">
        <ele>216</ele>
        <time>2016-10-20T01:25:06Z</time>
      </trkpt>
      <trkpt lat="50.53255" lon="5.69272">
        <ele>217</ele>
        <time>2016-10-20T01:27:06Z</time>
      </trkpt>
      <trkpt lat="50.53148" lon="5.6911">
        <ele>217</ele>
        <time>2016-10-20T01:29:06Z</time>
      </trkpt>
      <trkpt lat="50.53122" lon="5.6906">
        <ele>218</ele>
        <time>2016-10-20T01:31:06Z</time>
      </trkpt>
      <trkpt lat="50.53103" lon="5.69047">
        <ele>218</ele>
        <time>2016-10-20T01:33:06Z</time>
      </trkpt>
      <trkpt lat="50.53075" lon="5.69063">
        <ele>217</ele>
        <time>2016-10-20T01:35:06Z</time>
      </trkpt>
      <trkpt lat="50.53068" lon="5.6906">
        <ele>217</ele>
        <time>2016-10-20T01:37:06Z</time>
      </trkpt>
      <trkpt lat="50.53049" lon="5.69044">
        <ele>217</ele>
        <time>2016-10-20T01:39:06Z</time>
      </trkpt>
      <trkpt lat="50.52995" lon="5.68981">
        <ele>218</ele>
        <time>2016-10-20T01:41:06Z</time>
      </trkpt>
      <trkpt lat="50.52924" lon="5.68857">
        <ele>224</ele>
        <time>2016-10-20T01:43:06Z</time>
      </trkpt>
      <trkpt lat="50.52885" lon="5.68813">
        <ele>226</ele>
        <time>2016-10-20T01:45:06Z</time>
      </trkpt>
      <trkpt lat="50.52861" lon="5.68771">
        <ele>228</ele>
        <time>2016-10-20T01:47:06Z</time>
      </trkpt>
      <trkpt lat="50.52834" lon="5.68734">
        <ele>230</ele>
        <time>2016-10-20T01:49:06Z</time>
      </trkpt>
      <trkpt lat="50.52671" lon="5.68522">
        <ele>239</ele>
        <time>2016-10-20T01:51:06Z</time>
      </trkpt>
      <trkpt lat="50.52633" lon="5.68453">
        <ele>242</ele>
        <time>2016-10-20T01:53:06Z</time>
      </trkpt>
      <trkpt lat="50.52552" lon="5.68393">
        <ele>245</ele>
        <time>2016-10-20T01:55:06Z</time>
      </trkpt>
      <trkpt lat="50.52517" lon="5.68394">
        <ele>245</ele>
        <time>2016-10-20T01:57:06Z</time>
      </trkpt>
      <trkpt lat="50.52441" lon="5.68375">
        <ele>246</ele>
        <time>2016-10-20T01:59:06Z</time>
      </trkpt>
      <trkpt lat="50.52464" lon="5.68189">
        <ele>252</ele>
        <time>2016-10-20T02:01:06Z</time>
      </trkpt>
      <trkpt lat="50.52464" lon="5.68099">
        <ele>253</ele>
        <time>2016-10-20T02:03:06Z</time>
      </trkpt>
      <trkpt lat="50.52461" lon="5.68067">
        <ele>253</ele>
        <time>2016-10-20T02:05:06Z</time>
      </trkpt>
      <trkpt lat="50.52455" lon="5.68014">
        <ele>254</ele>
        <time>2016-10-20T02:07:06Z</time>
      </trkpt>
      <trkpt lat="50.5244" lon="5.67939">
        <ele>253</ele>
        <time>2016-10-20T02:09:06Z</time>
      </trkpt>
      <trkpt lat="50.52422" lon="5.6788">
        <ele>253</ele>
        <time>2016-10-20T02:11:06Z</time>
      </trkpt>
      <trkpt lat="50.52374" lon="5.67752">
        <ele>254</ele>
        <time>2016-10-20T02:13:06Z</time>
      </trkpt>
      <trkpt lat="50.52146" lon="5.67193">
        <ele>266</ele>
        <time>2016-10-20T02:15:06Z</time>
      </trkpt>
      <trkpt lat="50.52138" lon="5.6716">
        <ele>267</ele>
        <time>2016-10-20T02:17:06Z</time>
      </trkpt>
      <trkpt lat="50.52128" lon="5.6703">
        <ele>266</ele>
        <time>2016-10-20T02:19:06Z</time>
      </trkpt>
      <trkpt lat="50.52123" lon="5.67005">
        <ele>266</ele>
        <time>2016-10-20T02:21:06Z</time>
      </trkpt>
      <trkpt lat="50.52103" lon="5.66957">
        <ele>267</ele>
        <time>2016-10-20T02:23:06Z</time>
      </trkpt>
      <trkpt lat="50.52054" lon="5.66873">
        <ele>267</ele>
        <time>2016-10-20T02:25:06Z</time>
      </trkpt>
      <trkpt lat="50.52043" lon="5.66834">
        <ele>267</ele>
        <time>2016-10-20T02:27:06Z</time>
      </trkpt>
      <trkpt lat="50.52038" lon="5.66759">
        <ele>268</ele>
        <time>2016-10-20T02:29:06Z</time>
      </trkpt>
      <trkpt lat="50.52041" lon="5.66449">
        <ele>273</ele>
        <time>2016-10-20T02:31:06Z</time>
      </trkpt>
      <trkpt lat="50.52039" lon="5.66357">
        <ele>275</ele>
        <time>2016-10-20T02:33:06Z</time>
      </trkpt>
      <trkpt lat="50.52023" lon="5.66186">
        <ele>277</ele>
        <time>2016-10-20T02:35:06Z</time>
      </trkpt>
      <trkpt lat="50.52021" lon="5.66119">
        <ele>279</ele>
        <time>2016-10-20T02:37:06Z</time>
      </trkpt>
      <trkpt lat="50.52028" lon="5.65932">
        <ele>281</ele>
        <time>2016-10-20T02:39:06Z</time>
      </trkpt>
      <trkpt lat="50.51932" lon="5.65955">
        <ele>285</ele>
        <time>2016-10-20T02:41:06Z</time>
      </trkpt>
      <trkpt lat="50.51734" lon="5.65997">
        <ele>280</ele>
        <time>2016-10-20T02:43:06Z</time>
      </trkpt>
      <trkpt lat="50.51625" lon="5.66003">
        <ele>274</ele>
        <time>2016-10-20T02:45:06Z</time>
      </trkpt>
      <trkpt lat="50.51557" lon="5.65993">
        <ele>270</ele>
        <time>2016-10-20T02:47:06Z</time>
      </trkpt>
      <trkpt lat="50.51391" lon="5.6594">
        <ele>260</ele>
        <time>2016-10-20T02:49:06Z</time>
      </trkpt>
      <trkpt lat="50.51354" lon="5.65933">
        <ele>256</ele>
        <time>2016-10-20T02:51:06Z</time>
      </trkpt>
      <trkpt lat="50.51074" lon="5.65907">
        <ele>235</ele>
        <time>2016-10-20T02:53:06Z</time>
      </trkpt>
      <trkpt lat="50.51025" lon="5.65911">
        <ele>233</ele>
        <time>2016-10-20T02:55:06Z</time>
      </trkpt>
      <trkpt lat="50.50945" lon="5.65942">
        <ele>225</ele>
        <time>2016-10-20T02:57:06Z</time>
      </trkpt>
      <trkpt lat="50.50871" lon="5.6598">
        <ele>219</ele>
        <time>2016-10-20T02:59:06Z</time>
      </trkpt>
      <trkpt lat="50.50815" lon="5.66027">
        <ele>216</ele>
        <time>2016-10-20T03:01:06Z</time>
      </trkpt>
      <trkpt lat="50.50741" lon="5.66112">
        <ele>216</ele>
        <time>2016-10-20T03:03:06Z</time>
      </trkpt>
      <trkpt lat="50.50723" lon="5.6612">
        <ele>217</ele>
        <time>2016-10-20T03:05:06Z</time>
      </trkpt>
      <trkpt lat="50.50716" lon="5.66115">
        <ele>217</ele>
        <time>2016-10-20T03:07:06Z</time>
      </trkpt>
      <trkpt lat="50.50722" lon="5.65991">
        <ele>215</ele>
        <time>2016-10-20T03:09:06Z</time>
      </trkpt>
      <trkpt lat="50.50719" lon="5.65914">
        <ele>214</ele>
        <time>2016-10-20T03:11:06Z</time>
      </trkpt>
      <trkpt lat="50.50714" lon="5.65862">
        <ele>212</ele>
        <time>2016-10-20T03:13:06Z</time>
      </trkpt>
      <trkpt lat="50.50676" lon="5.65615">
        <ele>208</ele>
        <time>2016-10-20T03:15:06Z</time>
      </trkpt>
      <trkpt lat="50.50611" lon="5.65178">
        <ele>201</ele>
        <time>2016-10-20T03:17:06Z</time>
      </trkpt>
      <trkpt lat="50.50607" lon="5.65111">
        <ele>201</ele>
        <time>2016-10-20T03:19:06Z</time>
      </trkpt>
      <trkpt lat="50.50618" lon="5.64986">
        <ele>201</ele>
        <time>2016-10-20T03:21:06Z</time>
      </trkpt>
      <trkpt lat="50.50616" lon="5.64931">
        <ele>200</ele>
        <time>2016-10-20T03:23:06Z</time>
      </trkpt>
      <trkpt lat="50.50611" lon="5.64896">
        <ele>199</ele>
        <time>2016-10-20T03:25:06Z</time>
      </trkpt>
      <trkpt lat="50.50604" lon="5.64858">
        <ele>199</ele>
        <time>2016-10-20T03:27:06Z</time>
      </trkpt>
      <trkpt lat="50.50477" lon="5.64521">
        <ele>199</ele>
        <time>2016-10-20T03:29:06Z</time>
      </trkpt>
      <trkpt lat="50.5044" lon="5.64397">
        <ele>196</ele>
        <time>2016-10-20T03:31:06Z</time>
      </trkpt>
      <trkpt lat="50.50388" lon="5.64005">
        <ele>192</ele>
        <time>2016-10-20T03:33:06Z</time>
      </trkpt>
      <trkpt lat="50.50369" lon="5.63834">
        <ele>193</ele>
        <time>2016-10-20T03:35:06Z</time>
      </trkpt>
      <trkpt lat="50.50353" lon="5.6375">
        <ele>190</ele>
        <time>2016-10-20T03:37:06Z</time>
      </trkpt>
      <trkpt lat="50.50333" lon="5.63709">
        <ele>188</ele>
        <time>2016-10-20T03:39:06Z</time>
      </trkpt>
      <trkpt lat="50.50318" lon="5.63689">
        <ele>187</ele>
        <time>2016-10-20T03:41:06Z</time>
      </trkpt>
      <trkpt lat="50.50217" lon="5.63606">
        <ele>184</ele>
        <time>2016-10-20T03:43:06Z</time>
      </trkpt>
      <trkpt lat="50.50197" lon="5.63584">
        <ele>182</ele>
        <time>2016-10-20T03:45:06Z</time>
      </trkpt>
      <trkpt lat="50.50179" lon="5.63555">
        <ele>180</ele>
        <time>2016-10-20T03:47:06Z</time>
      </trkpt>
      <trkpt lat="50.50157" lon="5.63502">
        <ele>177</ele>
        <time>2016-10-20T03:49:06Z</time>
      </trkpt>
      <trkpt lat="50.50148" lon="5.63471">
        <ele>178</ele>
        <time>2016-10-20T03:51:06Z</time>
      </trkpt>
      <trkpt lat="50.50127" lon="5.6337">
        <ele>178</ele>
        <time>2016-10-20T03:53:06Z</time>
      </trkpt>
      <trkpt lat="50.50119" lon="5.63297">
        <ele>178</ele>
        <time>2016-10-20T03:55:06Z</time>
      </trkpt>
      <trkpt lat="50.50118" lon="5.63238">
        <ele>178</ele>
        <time>2016-10-20T03:57:06Z</time>
      </trkpt>
      <trkpt lat="50.5013" lon="5.63083">
        <ele>178</ele>
        <time>2016-10-20T03:59:06Z</time>
      </trkpt>
      <trkpt lat="50.50131" lon="5.63009">
        <ele>177</ele>
        <time>2016-10-20T04:01:06Z</time>
      </trkpt>
      <trkpt lat="50.50128" lon="5.62979">
        <ele>177</ele>
        <time>2016-10-20T04:03:06Z</time>
      </trkpt>
      <trkpt lat="50.50078" lon="5.62611">
        <ele>172</ele>
        <time>2016-10-20T04:05:06Z</time>
      </trkpt>
      <trkpt lat="50.5007" lon="5.62573">
        <ele>172</ele>
        <time>2016-10-20T04:07:06Z</time>
      </trkpt>
      <trkpt lat="50.49969" lon="5.61867">
        <ele>169</ele>
        <time>2016-10-20T04:09:06Z</time>
      </trkpt>
      <trkpt lat="50.49968" lon="5.61807">
        <ele>171</ele>
        <time>2016-10-20T04:11:06Z</time>
      </trkpt>
      <trkpt lat="50.49978" lon="5.61733">
        <ele>169</ele>
        <time>2016-10-20T04:13:06Z</time>
      </trkpt>
      <trkpt lat="50.50004" lon="5.61656">
        <ele>165</ele>
        <time>2016-10-20T04:15:06Z</time>
      </trkpt>
      <trkpt lat="50.50042" lon="5.61565">
        <ele>167</ele>
        <time>2016-10-20T04:17:06Z</time>
      </trkpt>
      <trkpt lat="50.50051" lon="5.61526">
        <ele>165</ele>
        <time>2016-10-20T04:19:06Z</time>
      </trkpt>
      <trkpt lat="50.50058" lon="5.61454">
        <ele>162</ele>
        <time>2016-10-20T04:21:06Z</time>
      </trkpt>
      <trkpt lat="50.50058" lon="5.61375">
        <ele>158</ele>
        <time>2016-10-20T04:23:06Z</time>
      </trkpt>
      <trkpt lat="50.50063" lon="5.61326">
        <ele>157</ele>
        <time>2016-10-20T04:25:06Z</time>
      </trkpt>
      <trkpt lat="50.50075" lon="5.61271">
        <ele>158</ele>
        <time>2016-10-20T04:27:06Z</time>
      </trkpt>
      <trkpt lat="50.50095" lon="5.6122">
        <ele>158</ele>
        <time>2016-10-20T04:29:06Z</time>
      </trkpt>
      <trkpt lat="50.50118" lon="5.61175">
        <ele>156</ele>
        <time>2016-10-20T04:31:06Z</time>
      </trkpt>
      <trkpt lat="50.50194" lon="5.61044">
        <ele>148</ele>
        <time>2016-10-20T04:33:06Z</time>
      </trkpt>
      <trkpt lat="50.50214" lon="5.6098">
        <ele>142</ele>
        <time>2016-10-20T04:35:06Z</time>
      </trkpt>
      <trkpt lat="50.50218" lon="5.6095">
        <ele>142</ele>
        <time>2016-10-20T04:37:06Z</time>
      </trkpt>
      <trkpt lat="50.50218" lon="5.60915">
        <ele>142</ele>
        <time>2016-10-20T04:39:06Z</time>
      </trkpt>
      <trkpt lat="50.50204" lon="5.60762">
        <ele>145</ele>
        <time>2016-10-20T04:41:06Z</time>
      </trkpt>
      <trkpt lat="50.50192" lon="5.60693">
        <ele>143</ele>
        <time>2016-10-20T04:43:06Z</time>
      </trkpt>
      <trkpt lat="50.50159" lon="5.60578">
        <ele>146</ele>
        <time>2016-10-20T04:45:06Z</time>
      </trkpt>
      <trkpt lat="50.50156" lon="5.60556">
        <ele>147</ele>
        <time>2016-10-20T04:47:06Z</time>
      </trkpt>
      <trkpt lat="50.50154" lon="5.60517">
        <ele>148</ele>
        <time>2016-10-20T04:49:06Z</time>
      </trkpt>
      <trkpt lat="50.50157" lon="5.60486">
        <ele>148</ele>
        <time>2016-10-20T04:51:06Z</time>
      </trkpt>
      <trkpt lat="50.50166" lon="5.60449">
        <ele>149</ele>
        <time>2016-10-20T04:53:06Z</time>
      </trkpt>
      <trkpt lat="50.50176" lon="5.60422">
        <ele>152</ele>
        <time>2016-10-20T04:55:06Z</time>
      </trkpt>
      <trkpt lat="50.50194" lon="5.60391">
        <ele>152</ele>
        <time>2016-10-20T04:57:06Z</time>
      </trkpt>
      <trkpt lat="50.50205" lon="5.60375">
        <ele>151</ele>
        <time>2016-10-20T04:59:06Z</time>
      </trkpt>
      <trkpt lat="50.50226" lon="5.60356">
        <ele>145</ele>
        <time>2016-10-20T05:01:06Z</time>
      </trkpt>
      <trkpt lat="50.50305" lon="5.60299">
        <ele>139</ele>
        <time>2016-10-20T05:03:06Z</time>
      </trkpt>
      <trkpt lat="50.50342" lon="5.60278">
        <ele>139</ele>
        <time>2016-10-20T05:05:06Z</time>
      </trkpt>
      <trkpt lat="50.50478" lon="5.60234">
        <ele>126</ele>
        <time>2016-10-20T05:07:06Z</time>
      </trkpt>
      <trkpt lat="50.50489" lon="5.60226">
        <ele>123</ele>
        <time>2016-10-20T05:09:06Z</time>
      </trkpt>
      <trkpt lat="50.50503" lon="5.60206">
        <ele>120</ele>
        <time>2016-10-20T05:11:06Z</time>
      </trkpt>
      <trkpt lat="50.50519" lon="5.60169">
        <ele>119</ele>
        <time>2016-10-20T05:13:06Z</time>
      </trkpt>
      <trkpt lat="50.50519" lon="5.60116">
        <ele>129</ele>
        <time>2016-10-20T05:15:06Z</time>
      </trkpt>
      <trkpt lat="50.50507" lon="5.60077">
        <ele>133</ele>
        <time>2016-10-20T05:17:06Z</time>
      </trkpt>
      <trkpt lat="50.50493" lon="5.60058">
        <ele>133</ele>
        <time>2016-10-20T05:19:06Z</time>
      </trkpt>
      <trkpt lat="50.50433" lon="5.60015">
        <ele>124</ele>
        <time>2016-10-20T05:21:06Z</time>
      </trkpt>
      <trkpt lat="50.50413" lon="5.59994">
        <ele>120</ele>
        <time>2016-10-20T05:23:06Z</time>
      </trkpt>
      <trkpt lat="50.50333" lon="5.59898">
        <ele>113</ele>
        <time>2016-10-20T05:25:06Z</time>
      </trkpt>
      <trkpt lat="50.50321" lon="5.59871">
        <ele>111</ele>
        <time>2016-10-20T05:27:06Z</time>
      </trkpt>
      <trkpt lat="50.50317" lon="5.59806">
        <ele>104</ele>
        <time>2016-10-20T05:29:06Z</time>
      </trkpt>
      <trkpt lat="50.50339" lon="5.59366">
        <ele>113</ele>
        <time>2016-10-20T05:31:06Z</time>
      </trkpt>
      <trkpt lat="50.50382" lon="5.59366">
        <ele>113</ele>
        <time>2016-10-20T05:33:06Z</time>
      </trkpt>
      <trkpt lat="50.50558" lon="5.59311">
        <ele>114</ele>
        <time>2016-10-20T05:35:06Z</time>
      </trkpt>
      <trkpt lat="50.50624" lon="5.59298">
        <ele>114</ele>
        <time>2016-10-20T05:37:06Z</time>
      </trkpt>
      <trkpt lat="50.50695" lon="5.59294">
        <ele>110</ele>
        <time>2016-10-20T05:39:06Z</time>
      </trkpt>
      <trkpt lat="50.50723" lon="5.59283">
        <ele>108</ele>
        <time>2016-10-20T05:41:06Z</time>
      </trkpt>
      <trkpt lat="50.50782" lon="5.59238">
        <ele>107</ele>
        <time>2016-10-20T05:43:06Z</time>
      </trkpt>
      <trkpt lat="50.50789" lon="5.59227">
        <ele>107</ele>
        <time>2016-10-20T05:45:06Z</time>
      </trkpt>
      <trkpt lat="50.50836" lon="5.59091">
        <ele>103</ele>
        <time>2016-10-20T05:47:06Z</time>
      </trkpt>
      <trkpt lat="50.50849" lon="5.58983">
        <ele>106</ele>
        <time>2016-10-20T05:49:06Z</time>
      </trkpt>
      <trkpt lat="50.50852" lon="5.58923">
        <ele>108</ele>
        <time>2016-10-20T05:51:06Z</time>
      </trkpt>
      <trkpt lat="50.50862" lon="5.58864">
        <ele>108</ele>
        <time>2016-10-20T05:53:06Z</time>
      </trkpt>
      <trkpt lat="50.50955" lon="5.58566">
        <ele>103</ele>
        <time>2016-10-20T05:55:06Z</time>
      </trkpt>
      <trkpt lat="50.50968" lon="5.58507">
        <ele>102</ele>
        <time>2016-10-20T05:57:06Z</time>
      </trkpt>
      <trkpt lat="50.50973" lon="5.58463">
        <ele>101</ele>
        <time>2016-10-20T05:59:06Z</time>
      </trkpt>
      <trkpt lat="50.50973" lon="5.58425">
        <ele>99</ele>
        <time>2016-10-20T06:01:06Z</time>
      </trkpt>
      <trkpt lat="50.50945" lon="5.58213">
        <ele>96</ele>
        <time>2016-10-20T06:03:06Z</time>
      </trkpt>
      <trkpt lat="50.5092" lon="5.58082">
        <ele>95</ele>
        <time>2016-10-20T06:05:06Z</time>
      </trkpt>
      <trkpt lat="50.50905" lon="5.58036">
        <ele>96</ele>
        <time>2016-10-20T06:07:06Z</time>
      </trkpt>
      <trkpt lat="50.50851" lon="5.579">
        <ele>99</ele>
        <time>2016-10-20T06:09:06Z</time>
        <extensions>
          <visugpx:TrkExtension xmlns:visugpx="https://www.visugpx.com/editgpx/">
            <visugpx:etape>1</visugpx:etape>
            </visugpx:TrkExtension>
        </extensions>
      </trkpt>
      <trkpt lat="50.50833" lon="5.57806">
        <ele>99</ele>
        <time>2016-10-20T06:11:06Z</time>
      </trkpt>
      <trkpt lat="50.50818" lon="5.57746">
        <ele>102</ele>
        <time>2016-10-20T06:13:06Z</time>
      </trkpt>
      <trkpt lat="50.50657" lon="5.57266">
        <ele>108</ele>
        <time>2016-10-20T06:15:06Z</time>
      </trkpt>
      <trkpt lat="50.50594" lon="5.57067">
        <ele>107</ele>
        <time>2016-10-20T06:17:06Z</time>
      </trkpt>
      <trkpt lat="50.50585" lon="5.57012">
        <ele>104</ele>
        <time>2016-10-20T06:19:06Z</time>
      </trkpt>
      <trkpt lat="50.50583" lon="5.56955">
        <ele>104</ele>
        <time>2016-10-20T06:21:06Z</time>
      </trkpt>
      <trkpt lat="50.5059" lon="5.56791">
        <ele>112</ele>
        <time>2016-10-20T06:23:06Z</time>
      </trkpt>
      <trkpt lat="50.50595" lon="5.56761">
        <ele>114</ele>
        <time>2016-10-20T06:25:06Z</time>
      </trkpt>
      <trkpt lat="50.50608" lon="5.56719">
        <ele>115</ele>
        <time>2016-10-20T06:27:06Z</time>
      </trkpt>
      <trkpt lat="50.50666" lon="5.56578">
        <ele>115</ele>
        <time>2016-10-20T06:29:06Z</time>
      </trkpt>
      <trkpt lat="50.50711" lon="5.56519">
        <ele>113</ele>
        <time>2016-10-20T06:31:06Z</time>
      </trkpt>
      <trkpt lat="50.50724" lon="5.56496">
        <ele>112</ele>
        <time>2016-10-20T06:33:06Z</time>
      </trkpt>
      <trkpt lat="50.50754" lon="5.56422">
        <ele>115</ele>
        <time>2016-10-20T06:35:06Z</time>
      </trkpt>
      <trkpt lat="50.50845" lon="5.56253">
        <ele>112</ele>
        <time>2016-10-20T06:37:06Z</time>
      </trkpt>
      <trkpt lat="50.50949" lon="5.56082">
        <ele>115</ele>
        <time>2016-10-20T06:39:06Z</time>
      </trkpt>
      <trkpt lat="50.50996" lon="5.56015">
        <ele>110</ele>
        <time>2016-10-20T06:41:06Z</time>
      </trkpt>
      <trkpt lat="50.51028" lon="5.55983">
        <ele>106</ele>
        <time>2016-10-20T06:43:06Z</time>
      </trkpt>
      <trkpt lat="50.51078" lon="5.55947">
        <ele>106</ele>
        <time>2016-10-20T06:45:06Z</time>
      </trkpt>
      <trkpt lat="50.50984" lon="5.55771">
        <ele>137</ele>
        <time>2016-10-20T06:47:06Z</time>
      </trkpt>
      <trkpt lat="50.5091" lon="5.55642">
        <ele>138</ele>
        <time>2016-10-20T06:49:06Z</time>
      </trkpt>
      <trkpt lat="50.50837" lon="5.55449">
        <ele>148</ele>
        <time>2016-10-20T06:51:06Z</time>
      </trkpt>
      <trkpt lat="50.50777" lon="5.55349">
        <ele>154</ele>
        <time>2016-10-20T06:53:06Z</time>
      </trkpt>
      <trkpt lat="50.50759" lon="5.55316">
        <ele>152</ele>
        <time>2016-10-20T06:55:06Z</time>
      </trkpt>
      <trkpt lat="50.50749" lon="5.55289">
        <ele>153</ele>
        <time>2016-10-20T06:57:06Z</time>
      </trkpt>
      <trkpt lat="50.50722" lon="5.55166">
        <ele>162</ele>
        <time>2016-10-20T06:59:06Z</time>
      </trkpt>
      <trkpt lat="50.50674" lon="5.55005">
        <ele>165</ele>
        <time>2016-10-20T07:01:06Z</time>
      </trkpt>
      <trkpt lat="50.50641" lon="5.54844">
        <ele>173</ele>
        <time>2016-10-20T07:03:06Z</time>
      </trkpt>
      <trkpt lat="50.50591" lon="5.54625">
        <ele>176</ele>
        <time>2016-10-20T07:05:06Z</time>
      </trkpt>
      <trkpt lat="50.50549" lon="5.54485">
        <ele>183</ele>
        <time>2016-10-20T07:07:06Z</time>
      </trkpt>
      <trkpt lat="50.5052" lon="5.54343">
        <ele>186</ele>
        <time>2016-10-20T07:09:06Z</time>
      </trkpt>
      <trkpt lat="50.50516" lon="5.54283">
        <ele>187</ele>
        <time>2016-10-20T07:11:06Z</time>
      </trkpt>
      <trkpt lat="50.50505" lon="5.54126">
        <ele>189</ele>
        <time>2016-10-20T07:13:06Z</time>
      </trkpt>
      <trkpt lat="50.50505" lon="5.53989">
        <ele>191</ele>
        <time>2016-10-20T07:15:06Z</time>
      </trkpt>
      <trkpt lat="50.50495" lon="5.53811">
        <ele>196</ele>
        <time>2016-10-20T07:17:06Z</time>
      </trkpt>
      <trkpt lat="50.50455" lon="5.53615">
        <ele>205</ele>
        <time>2016-10-20T07:19:06Z</time>
      </trkpt>
      <trkpt lat="50.50448" lon="5.53597">
        <ele>205</ele>
        <time>2016-10-20T07:21:06Z</time>
      </trkpt>
      <trkpt lat="50.5034" lon="5.53176">
        <ele>211</ele>
        <time>2016-10-20T07:23:06Z</time>
      </trkpt>
      <trkpt lat="50.50336" lon="5.53147">
        <ele>211</ele>
        <time>2016-10-20T07:25:06Z</time>
      </trkpt>
      <trkpt lat="50.5034" lon="5.53052">
        <ele>213</ele>
        <time>2016-10-20T07:27:06Z</time>
      </trkpt>
      <trkpt lat="50.50338" lon="5.53026">
        <ele>213</ele>
        <time>2016-10-20T07:29:06Z</time>
      </trkpt>
      <trkpt lat="50.50267" lon="5.52656">
        <ele>224</ele>
        <time>2016-10-20T07:31:06Z</time>
      </trkpt>
      <trkpt lat="50.50248" lon="5.52621">
        <ele>225</ele>
        <time>2016-10-20T07:33:06Z</time>
      </trkpt>
      <trkpt lat="50.50221" lon="5.52588">
        <ele>226</ele>
        <time>2016-10-20T07:35:06Z</time>
      </trkpt>
      <trkpt lat="50.50184" lon="5.5252">
        <ele>225</ele>
        <time>2016-10-20T07:37:06Z</time>
      </trkpt>
      <trkpt lat="50.50133" lon="5.52477">
        <ele>227</ele>
        <time>2016-10-20T07:39:06Z</time>
      </trkpt>
      <trkpt lat="50.50111" lon="5.52451">
        <ele>227</ele>
        <time>2016-10-20T07:41:06Z</time>
      </trkpt>
      <trkpt lat="50.50035" lon="5.52317">
        <ele>232</ele>
        <time>2016-10-20T07:43:06Z</time>
      </trkpt>
      <trkpt lat="50.50027" lon="5.52289">
        <ele>234</ele>
        <time>2016-10-20T07:45:06Z</time>
      </trkpt>
      <trkpt lat="50.50038" lon="5.52155">
        <ele>237</ele>
        <time>2016-10-20T07:47:06Z</time>
      </trkpt>
      <trkpt lat="50.50038" lon="5.52122">
        <ele>237</ele>
        <time>2016-10-20T07:49:06Z</time>
      </trkpt>
      <trkpt lat="50.50033" lon="5.52094">
        <ele>237</ele>
        <time>2016-10-20T07:51:06Z</time>
      </trkpt>
      <trkpt lat="50.49906" lon="5.51822">
        <ele>241</ele>
        <time>2016-10-20T07:53:06Z</time>
      </trkpt>
      <trkpt lat="50.49889" lon="5.51754">
        <ele>241</ele>
        <time>2016-10-20T07:55:06Z</time>
      </trkpt>
      <trkpt lat="50.49875" lon="5.51718">
        <ele>242</ele>
        <time>2016-10-20T07:57:06Z</time>
      </trkpt>
      <trkpt lat="50.49846" lon="5.51674">
        <ele>245</ele>
        <time>2016-10-20T07:59:06Z</time>
      </trkpt>
      <trkpt lat="50.49787" lon="5.51617">
        <ele>249</ele>
        <time>2016-10-20T08:01:06Z</time>
      </trkpt>
      <trkpt lat="50.49775" lon="5.516">
        <ele>250</ele>
        <time>2016-10-20T08:03:06Z</time>
      </trkpt>
      <trkpt lat="50.49771" lon="5.51586">
        <ele>250</ele>
        <time>2016-10-20T08:05:06Z</time>
      </trkpt>
      <trkpt lat="50.49769" lon="5.51553">
        <ele>250</ele>
        <time>2016-10-20T08:07:06Z</time>
      </trkpt>
      <trkpt lat="50.49773" lon="5.51518">
        <ele>250</ele>
        <time>2016-10-20T08:09:06Z</time>
      </trkpt>
      <trkpt lat="50.49803" lon="5.51434">
        <ele>249</ele>
        <time>2016-10-20T08:11:06Z</time>
      </trkpt>
      <trkpt lat="50.49804" lon="5.51415">
        <ele>249</ele>
        <time>2016-10-20T08:13:06Z</time>
      </trkpt>
      <trkpt lat="50.498" lon="5.51385">
        <ele>250</ele>
        <time>2016-10-20T08:15:06Z</time>
      </trkpt>
      <trkpt lat="50.49789" lon="5.51356">
        <ele>252</ele>
        <time>2016-10-20T08:17:06Z</time>
      </trkpt>
      <trkpt lat="50.49731" lon="5.51253">
        <ele>256</ele>
        <time>2016-10-20T08:19:06Z</time>
      </trkpt>
      <trkpt lat="50.49648" lon="5.51016">
        <ele>260</ele>
        <time>2016-10-20T08:21:06Z</time>
      </trkpt>
      <trkpt lat="50.49611" lon="5.50936">
        <ele>260</ele>
        <time>2016-10-20T08:23:06Z</time>
      </trkpt>
      <trkpt lat="50.49591" lon="5.509">
        <ele>261</ele>
        <time>2016-10-20T08:25:06Z</time>
      </trkpt>
      <trkpt lat="50.49502" lon="5.50765">
        <ele>258</ele>
        <time>2016-10-20T08:27:06Z</time>
      </trkpt>
      <trkpt lat="50.49455" lon="5.50695">
        <ele>258</ele>
        <time>2016-10-20T08:29:06Z</time>
      </trkpt>
      <trkpt lat="50.49359" lon="5.50558">
        <ele>256</ele>
        <time>2016-10-20T08:31:06Z</time>
      </trkpt>
      <trkpt lat="50.49316" lon="5.50507">
        <ele>257</ele>
        <time>2016-10-20T08:33:06Z</time>
      </trkpt>
      <trkpt lat="50.49156" lon="5.50326">
        <ele>258</ele>
        <time>2016-10-20T08:35:06Z</time>
      </trkpt>
      <trkpt lat="50.49024" lon="5.50214">
        <ele>262</ele>
        <time>2016-10-20T08:37:06Z</time>
      </trkpt>
      <trkpt lat="50.4895" lon="5.5013">
        <ele>264</ele>
        <time>2016-10-20T08:39:06Z</time>
      </trkpt>
      <trkpt lat="50.48934" lon="5.50107">
        <ele>264</ele>
        <time>2016-10-20T08:41:06Z</time>
      </trkpt>
      <trkpt lat="50.4893" lon="5.50086">
        <ele>263</ele>
        <time>2016-10-20T08:43:06Z</time>
      </trkpt>
      <trkpt lat="50.48918" lon="5.50079">
        <ele>264</ele>
        <time>2016-10-20T08:45:06Z</time>
      </trkpt>
      <trkpt lat="50.48868" lon="5.50029">
        <ele>265</ele>
        <time>2016-10-20T08:47:06Z</time>
      </trkpt>
      <trkpt lat="50.48847" lon="5.50028">
        <ele>267</ele>
        <time>2016-10-20T08:49:06Z</time>
      </trkpt>
      <trkpt lat="50.4884" lon="5.50034">
        <ele>267</ele>
        <time>2016-10-20T08:51:06Z</time>
      </trkpt>
      <trkpt lat="50.48794" lon="5.50116">
        <ele>272</ele>
        <time>2016-10-20T08:53:06Z</time>
      </trkpt>
      <trkpt lat="50.48771" lon="5.50126">
        <ele>273</ele>
        <time>2016-10-20T08:55:06Z</time>
      </trkpt>
      <trkpt lat="50.48729" lon="5.50126">
        <ele>275</ele>
        <time>2016-10-20T08:57:06Z</time>
      </trkpt>
      <trkpt lat="50.48716" lon="5.5014">
        <ele>276</ele>
        <time>2016-10-20T08:59:06Z</time>
      </trkpt>
      <trkpt lat="50.48698" lon="5.50211">
        <ele>278</ele>
        <time>2016-10-20T09:01:06Z</time>
      </trkpt>
      <trkpt lat="50.48683" lon="5.50327">
        <ele>277</ele>
        <time>2016-10-20T09:03:06Z</time>
      </trkpt>
      <trkpt lat="50.48675" lon="5.50348">
        <ele>277</ele>
        <time>2016-10-20T09:05:06Z</time>
      </trkpt>
      <trkpt lat="50.48661" lon="5.50368">
        <ele>277</ele>
        <time>2016-10-20T09:07:06Z</time>
      </trkpt>
      <trkpt lat="50.48635" lon="5.50371">
        <ele>275</ele>
        <time>2016-10-20T09:09:06Z</time>
      </trkpt>
      <trkpt lat="50.48619" lon="5.5036">
        <ele>275</ele>
        <time>2016-10-20T09:11:06Z</time>
      </trkpt>
      <trkpt lat="50.48587" lon="5.50305">
        <ele>275</ele>
        <time>2016-10-20T09:13:06Z</time>
      </trkpt>
      <trkpt lat="50.48536" lon="5.50234">
        <ele>273</ele>
        <time>2016-10-20T09:15:06Z</time>
      </trkpt>
      <trkpt lat="50.48446" lon="5.50142">
        <ele>271</ele>
        <time>2016-10-20T09:17:06Z</time>
      </trkpt>
      <trkpt lat="50.48425" lon="5.50115">
        <ele>271</ele>
        <time>2016-10-20T09:19:06Z</time>
      </trkpt>
      <trkpt lat="50.48372" lon="5.50005">
        <ele>274</ele>
        <time>2016-10-20T09:21:06Z</time>
      </trkpt>
      <trkpt lat="50.48099" lon="5.49569">
        <ele>286</ele>
        <time>2016-10-20T09:23:06Z</time>
      </trkpt>
      <trkpt lat="50.48044" lon="5.49473">
        <ele>287</ele>
        <time>2016-10-20T09:25:06Z</time>
      </trkpt>
      <trkpt lat="50.4789" lon="5.49158">
        <ele>287</ele>
        <time>2016-10-20T09:27:06Z</time>
      </trkpt>
      <trkpt lat="50.47864" lon="5.49112">
        <ele>287</ele>
        <time>2016-10-20T09:29:06Z</time>
      </trkpt>
      <trkpt lat="50.47717" lon="5.49064">
        <ele>284</ele>
        <time>2016-10-20T09:31:06Z</time>
      </trkpt>
      <trkpt lat="50.47592" lon="5.49011">
        <ele>278</ele>
        <time>2016-10-20T09:33:06Z</time>
      </trkpt>
      <trkpt lat="50.47442" lon="5.48903">
        <ele>269</ele>
        <time>2016-10-20T09:35:06Z</time>
      </trkpt>
      <trkpt lat="50.47224" lon="5.48775">
        <ele>273</ele>
        <time>2016-10-20T09:37:06Z</time>
      </trkpt>
      <trkpt lat="50.46946" lon="5.48734">
        <ele>263</ele>
        <time>2016-10-20T09:39:06Z</time>
      </trkpt>
      <trkpt lat="50.46923" lon="5.48727">
        <ele>261</ele>
        <time>2016-10-20T09:41:06Z</time>
      </trkpt>
      <trkpt lat="50.46904" lon="5.4871">
        <ele>259</ele>
        <time>2016-10-20T09:43:06Z</time>
      </trkpt>
      <trkpt lat="50.46834" lon="5.48628">
        <ele>256</ele>
        <time>2016-10-20T09:45:06Z</time>
      </trkpt>
      <trkpt lat="50.46587" lon="5.48333">
        <ele>241</ele>
        <time>2016-10-20T09:47:06Z</time>
      </trkpt>
      <trkpt lat="50.46548" lon="5.48296">
        <ele>243</ele>
        <time>2016-10-20T09:49:06Z</time>
      </trkpt>
      <trkpt lat="50.46527" lon="5.48283">
        <ele>243</ele>
        <time>2016-10-20T09:51:06Z</time>
      </trkpt>
      <trkpt lat="50.46163" lon="5.48138">
        <ele>231</ele>
        <time>2016-10-20T09:53:06Z</time>
      </trkpt>
      <trkpt lat="50.46144" lon="5.48125">
        <ele>230</ele>
        <time>2016-10-20T09:55:06Z</time>
      </trkpt>
      <trkpt lat="50.46134" lon="5.48115">
        <ele>229</ele>
        <time>2016-10-20T09:57:06Z</time>
      </trkpt>
      <trkpt lat="50.46118" lon="5.48086">
        <ele>228</ele>
        <time>2016-10-20T09:59:06Z</time>
      </trkpt>
      <trkpt lat="50.46097" lon="5.47947">
        <ele>227</ele>
        <time>2016-10-20T10:01:06Z</time>
      </trkpt>
      <trkpt lat="50.46088" lon="5.47919">
        <ele>226</ele>
        <time>2016-10-20T10:03:06Z</time>
      </trkpt>
      <trkpt lat="50.46074" lon="5.47901">
        <ele>225</ele>
        <time>2016-10-20T10:05:06Z</time>
      </trkpt>
      <trkpt lat="50.46046" lon="5.47884">
        <ele>222</ele>
        <time>2016-10-20T10:07:06Z</time>
      </trkpt>
      <trkpt lat="50.45953" lon="5.47854">
        <ele>222</ele>
        <time>2016-10-20T10:09:06Z</time>
      </trkpt>
      <trkpt lat="50.4594" lon="5.47845">
        <ele>223</ele>
        <time>2016-10-20T10:11:06Z</time>
      </trkpt>
      <trkpt lat="50.45754" lon="5.47649">
        <ele>236</ele>
        <time>2016-10-20T10:13:06Z</time>
      </trkpt>
      <trkpt lat="50.456" lon="5.47518">
        <ele>239</ele>
        <time>2016-10-20T10:15:06Z</time>
      </trkpt>
      <trkpt lat="50.4462" lon="5.46711">
        <ele>265</ele>
        <time>2016-10-20T10:17:06Z</time>
      </trkpt>
      <trkpt lat="50.44146" lon="5.46327">
        <ele>283</ele>
        <time>2016-10-20T10:19:06Z</time>
      </trkpt>
      <trkpt lat="50.44123" lon="5.46313">
        <ele>283</ele>
        <time>2016-10-20T10:21:06Z</time>
      </trkpt>
      <trkpt lat="50.44095" lon="5.46314">
        <ele>284</ele>
        <time>2016-10-20T10:23:06Z</time>
      </trkpt>
      <trkpt lat="50.44143" lon="5.45206">
        <ele>263</ele>
        <time>2016-10-20T10:25:06Z</time>
      </trkpt>
      <trkpt lat="50.44155" lon="5.45101">
        <ele>260</ele>
        <time>2016-10-20T10:27:06Z</time>
      </trkpt>
      <trkpt lat="50.44218" lon="5.44791">
        <ele>264</ele>
        <time>2016-10-20T10:29:06Z</time>
      </trkpt>
      <trkpt lat="50.44401" lon="5.44117">
        <ele>258</ele>
        <time>2016-10-20T10:31:06Z</time>
      </trkpt>
      <trkpt lat="50.44561" lon="5.43558">
        <ele>257</ele>
        <time>2016-10-20T10:33:06Z</time>
      </trkpt>
      <trkpt lat="50.44618" lon="5.43455">
        <ele>260</ele>
        <time>2016-10-20T10:35:06Z</time>
      </trkpt>
      <trkpt lat="50.44723" lon="5.43303">
        <ele>265</ele>
        <time>2016-10-20T10:37:06Z</time>
      </trkpt>
      <trkpt lat="50.44746" lon="5.43261">
        <ele>266</ele>
        <time>2016-10-20T10:39:06Z</time>
      </trkpt>
      <trkpt lat="50.44826" lon="5.43013">
        <ele>270</ele>
        <time>2016-10-20T10:41:06Z</time>
      </trkpt>
      <trkpt lat="50.44907" lon="5.42863">
        <ele>274</ele>
        <time>2016-10-20T10:43:06Z</time>
      </trkpt>
      <trkpt lat="50.44944" lon="5.4282">
        <ele>276</ele>
        <time>2016-10-20T10:45:06Z</time>
      </trkpt>
      <trkpt lat="50.4495" lon="5.42807">
        <ele>277</ele>
        <time>2016-10-20T10:47:06Z</time>
      </trkpt>
      <trkpt lat="50.44956" lon="5.42779">
        <ele>278</ele>
        <time>2016-10-20T10:49:06Z</time>
      </trkpt>
      <trkpt lat="50.44975" lon="5.4259">
        <ele>281</ele>
        <time>2016-10-20T10:51:06Z</time>
      </trkpt>
      <trkpt lat="50.44989" lon="5.42393">
        <ele>284</ele>
        <time>2016-10-20T10:53:06Z</time>
      </trkpt>
      <trkpt lat="50.44986" lon="5.42225">
        <ele>287</ele>
        <time>2016-10-20T10:55:06Z</time>
      </trkpt>
      <trkpt lat="50.44972" lon="5.42107">
        <ele>289</ele>
        <time>2016-10-20T10:57:06Z</time>
      </trkpt>
      <trkpt lat="50.44955" lon="5.42022">
        <ele>290</ele>
        <time>2016-10-20T10:59:06Z</time>
      </trkpt>
      <trkpt lat="50.44941" lon="5.41916">
        <ele>293</ele>
        <time>2016-10-20T11:01:06Z</time>
      </trkpt>
      <trkpt lat="50.44945" lon="5.41856">
        <ele>293</ele>
        <time>2016-10-20T11:03:06Z</time>
      </trkpt>
      <trkpt lat="50.44962" lon="5.41746">
        <ele>294</ele>
        <time>2016-10-20T11:05:06Z</time>
      </trkpt>
      <trkpt lat="50.4499" lon="5.4161">
        <ele>293</ele>
        <time>2016-10-20T11:07:06Z</time>
      </trkpt>
      <trkpt lat="50.45006" lon="5.41553">
        <ele>293</ele>
        <time>2016-10-20T11:09:06Z</time>
      </trkpt>
      <trkpt lat="50.4502" lon="5.41519">
        <ele>293</ele>
        <time>2016-10-20T11:11:06Z</time>
      </trkpt>
      <trkpt lat="50.45042" lon="5.41484">
        <ele>294</ele>
        <time>2016-10-20T11:13:06Z</time>
      </trkpt>
      <trkpt lat="50.45154" lon="5.41342">
        <ele>294</ele>
        <time>2016-10-20T11:15:06Z</time>
      </trkpt>
      <trkpt lat="50.45264" lon="5.41188">
        <ele>288</ele>
        <time>2016-10-20T11:17:06Z</time>
      </trkpt>
      <trkpt lat="50.45343" lon="5.41002">
        <ele>282</ele>
        <time>2016-10-20T11:19:06Z</time>
      </trkpt>
      <trkpt lat="50.45356" lon="5.4098">
        <ele>280</ele>
        <time>2016-10-20T11:21:06Z</time>
      </trkpt>
      <trkpt lat="50.45547" lon="5.40762">
        <ele>267</ele>
        <time>2016-10-20T11:23:06Z</time>
      </trkpt>
      <trkpt lat="50.45612" lon="5.40682">
        <ele>265</ele>
        <time>2016-10-20T11:25:06Z</time>
      </trkpt>
      <trkpt lat="50.45728" lon="5.40509">
        <ele>272</ele>
        <time>2016-10-20T11:27:06Z</time>
      </trkpt>
      <trkpt lat="50.45765" lon="5.40598">
        <ele>274</ele>
        <time>2016-10-20T11:29:06Z</time>
      </trkpt>
      <trkpt lat="50.45769" lon="5.40612">
        <ele>274</ele>
        <time>2016-10-20T11:31:06Z</time>
      </trkpt>
      <trkpt lat="50.45773" lon="5.40683">
        <ele>273</ele>
        <time>2016-10-20T11:33:06Z</time>
      </trkpt>
      <trkpt lat="50.45779" lon="5.40705">
        <ele>272</ele>
        <time>2016-10-20T11:35:06Z</time>
      </trkpt>
      <trkpt lat="50.45799" lon="5.4075">
        <ele>272</ele>
        <time>2016-10-20T11:37:06Z</time>
      </trkpt>
      <trkpt lat="50.45833" lon="5.4076">
        <ele>274</ele>
        <time>2016-10-20T11:39:06Z</time>
      </trkpt>
      <trkpt lat="50.45898" lon="5.40794">
        <ele>275</ele>
        <time>2016-10-20T11:41:06Z</time>
      </trkpt>
      <trkpt lat="50.46029" lon="5.40825">
        <ele>283</ele>
        <time>2016-10-20T11:43:06Z</time>
      </trkpt>
      <trkpt lat="50.46054" lon="5.40827">
        <ele>285</ele>
        <time>2016-10-20T11:45:06Z</time>
      </trkpt>
      <trkpt lat="50.46085" lon="5.40815">
        <ele>288</ele>
        <time>2016-10-20T11:47:06Z</time>
      </trkpt>
      <trkpt lat="50.46141" lon="5.40764">
        <ele>285</ele>
        <time>2016-10-20T11:49:06Z</time>
      </trkpt>
      <trkpt lat="50.46179" lon="5.40732">
        <ele>283</ele>
        <time>2016-10-20T11:51:06Z</time>
      </trkpt>
      <trkpt lat="50.46302" lon="5.40656">
        <ele>280</ele>
        <time>2016-10-20T11:53:06Z</time>
      </trkpt>
      <trkpt lat="50.4633" lon="5.4065">
        <ele>281</ele>
        <time>2016-10-20T11:55:06Z</time>
      </trkpt>
      <trkpt lat="50.4637" lon="5.40664">
        <ele>278</ele>
        <time>2016-10-20T11:57:06Z</time>
      </trkpt>
      <trkpt lat="50.4699" lon="5.41052">
        <ele>266</ele>
        <time>2016-10-20T11:59:06Z</time>
      </trkpt>
      <trkpt lat="50.47246" lon="5.41191">
        <ele>271</ele>
        <time>2016-10-20T12:01:06Z</time>
      </trkpt>
      <trkpt lat="50.47286" lon="5.41206">
        <ele>272</ele>
        <time>2016-10-20T12:03:06Z</time>
      </trkpt>
      <trkpt lat="50.47501" lon="5.41245">
        <ele>277</ele>
        <time>2016-10-20T12:05:06Z</time>
      </trkpt>
      <trkpt lat="50.47524" lon="5.41269">
        <ele>278</ele>
        <time>2016-10-20T12:07:06Z</time>
      </trkpt>
      <trkpt lat="50.47547" lon="5.41339">
        <ele>277</ele>
        <time>2016-10-20T12:09:06Z</time>
      </trkpt>
      <trkpt lat="50.47575" lon="5.41389">
        <ele>276</ele>
        <time>2016-10-20T12:11:06Z</time>
      </trkpt>
      <trkpt lat="50.47648" lon="5.41511">
        <ele>275</ele>
        <time>2016-10-20T12:13:06Z</time>
      </trkpt>
      <trkpt lat="50.47695" lon="5.41618">
        <ele>275</ele>
        <time>2016-10-20T12:15:06Z</time>
      </trkpt>
      <trkpt lat="50.47704" lon="5.4165">
        <ele>274</ele>
        <time>2016-10-20T12:17:06Z</time>
      </trkpt>
      <trkpt lat="50.47705" lon="5.41672">
        <ele>274</ele>
        <time>2016-10-20T12:19:06Z</time>
      </trkpt>
      <trkpt lat="50.47697" lon="5.41708">
        <ele>272</ele>
        <time>2016-10-20T12:21:06Z</time>
      </trkpt>
      <trkpt lat="50.477" lon="5.41727">
        <ele>272</ele>
        <time>2016-10-20T12:23:06Z</time>
      </trkpt>
      <trkpt lat="50.47766" lon="5.41832">
        <ele>273</ele>
        <time>2016-10-20T12:25:06Z</time>
      </trkpt>
      <trkpt lat="50.47846" lon="5.41945">
        <ele>276</ele>
        <time>2016-10-20T12:27:06Z</time>
      </trkpt>
      <trkpt lat="50.47901" lon="5.41893">
        <ele>280</ele>
        <time>2016-10-20T12:29:06Z</time>
      </trkpt>
      <trkpt lat="50.48001" lon="5.41802">
        <ele>287</ele>
        <time>2016-10-20T12:31:06Z</time>
      </trkpt>
      <trkpt lat="50.48024" lon="5.41788">
        <ele>288</ele>
        <time>2016-10-20T12:33:06Z</time>
      </trkpt>
      <trkpt lat="50.48056" lon="5.41777">
        <ele>288</ele>
        <time>2016-10-20T12:35:06Z</time>
      </trkpt>
      <trkpt lat="50.48096" lon="5.41761">
        <ele>288</ele>
        <time>2016-10-20T12:37:06Z</time>
      </trkpt>
      <trkpt lat="50.48116" lon="5.41738">
        <ele>287</ele>
        <time>2016-10-20T12:39:06Z</time>
      </trkpt>
      <trkpt lat="50.48118" lon="5.41697">
        <ele>286</ele>
        <time>2016-10-20T12:41:06Z</time>
      </trkpt>
      <trkpt lat="50.48101" lon="5.41624">
        <ele>286</ele>
        <time>2016-10-20T12:43:06Z</time>
      </trkpt>
      <trkpt lat="50.48099" lon="5.41592">
        <ele>285</ele>
        <time>2016-10-20T12:45:06Z</time>
      </trkpt>
      <trkpt lat="50.48107" lon="5.41558">
        <ele>284</ele>
        <time>2016-10-20T12:47:06Z</time>
      </trkpt>
      <trkpt lat="50.48123" lon="5.41533">
        <ele>283</ele>
        <time>2016-10-20T12:49:06Z</time>
      </trkpt>
      <trkpt lat="50.48207" lon="5.41511">
        <ele>279</ele>
        <time>2016-10-20T12:51:06Z</time>
      </trkpt>
      <trkpt lat="50.4834" lon="5.41488">
        <ele>272</ele>
        <time>2016-10-20T12:53:06Z</time>
      </trkpt>
      <trkpt lat="50.48514" lon="5.41518">
        <ele>269</ele>
        <time>2016-10-20T12:55:06Z</time>
      </trkpt>
      <trkpt lat="50.48831" lon="5.41629">
        <ele>271</ele>
        <time>2016-10-20T12:57:06Z</time>
      </trkpt>
      <trkpt lat="50.48892" lon="5.41656">
        <ele>273</ele>
        <time>2016-10-20T12:59:06Z</time>
      </trkpt>
      <trkpt lat="50.49041" lon="5.41739">
        <ele>275</ele>
        <time>2016-10-20T13:01:06Z</time>
      </trkpt>
      <trkpt lat="50.49131" lon="5.41794">
        <ele>275</ele>
        <time>2016-10-20T13:03:06Z</time>
      </trkpt>
      <trkpt lat="50.49191" lon="5.41838">
        <ele>274</ele>
        <time>2016-10-20T13:05:06Z</time>
      </trkpt>
      <trkpt lat="50.49232" lon="5.41851">
        <ele>272</ele>
        <time>2016-10-20T13:07:06Z</time>
      </trkpt>
      <trkpt lat="50.49476" lon="5.41882">
        <ele>254</ele>
        <time>2016-10-20T13:09:06Z</time>
      </trkpt>
      <trkpt lat="50.4951" lon="5.41904">
        <ele>251</ele>
        <time>2016-10-20T13:11:06Z</time>
      </trkpt>
      <trkpt lat="50.49577" lon="5.41963">
        <ele>245</ele>
        <time>2016-10-20T13:13:06Z</time>
      </trkpt>
      <trkpt lat="50.49621" lon="5.41985">
        <ele>242</ele>
        <time>2016-10-20T13:15:06Z</time>
      </trkpt>
      <trkpt lat="50.49779" lon="5.42084">
        <ele>234</ele>
        <time>2016-10-20T13:17:06Z</time>
      </trkpt>
      <trkpt lat="50.49904" lon="5.42145">
        <ele>228</ele>
        <time>2016-10-20T13:19:06Z</time>
      </trkpt>
      <trkpt lat="50.49963" lon="5.42183">
        <ele>226</ele>
        <time>2016-10-20T13:21:06Z</time>
      </trkpt>
      <trkpt lat="50.50019" lon="5.42196">
        <ele>224</ele>
        <time>2016-10-20T13:23:06Z</time>
      </trkpt>
      <trkpt lat="50.50104" lon="5.42177">
        <ele>222</ele>
        <time>2016-10-20T13:25:06Z</time>
      </trkpt>
      <trkpt lat="50.50123" lon="5.42178">
        <ele>223</ele>
        <time>2016-10-20T13:27:06Z</time>
      </trkpt>
      <trkpt lat="50.50132" lon="5.42184">
        <ele>223</ele>
        <time>2016-10-20T13:29:06Z</time>
      </trkpt>
      <trkpt lat="50.50198" lon="5.42334">
        <ele>221</ele>
        <time>2016-10-20T13:31:06Z</time>
      </trkpt>
      <trkpt lat="50.5022" lon="5.42368">
        <ele>221</ele>
        <time>2016-10-20T13:33:06Z</time>
      </trkpt>
      <trkpt lat="50.50278" lon="5.42438">
        <ele>221</ele>
        <time>2016-10-20T13:35:06Z</time>
      </trkpt>
      <trkpt lat="50.50298" lon="5.42418">
        <ele>222</ele>
        <time>2016-10-20T13:37:06Z</time>
      </trkpt>
      <trkpt lat="50.50364" lon="5.42319">
        <ele>226</ele>
        <time>2016-10-20T13:39:06Z</time>
      </trkpt>
      <trkpt lat="50.50408" lon="5.42266">
        <ele>228</ele>
        <time>2016-10-20T13:41:06Z</time>
      </trkpt>
      <trkpt lat="50.50604" lon="5.42091">
        <ele>219</ele>
        <time>2016-10-20T13:43:06Z</time>
      </trkpt>
      <trkpt lat="50.50686" lon="5.42012">
        <ele>216</ele>
        <time>2016-10-20T13:45:06Z</time>
      </trkpt>
      <trkpt lat="50.50711" lon="5.42003">
        <ele>217</ele>
        <time>2016-10-20T13:47:06Z</time>
      </trkpt>
      <trkpt lat="50.50718" lon="5.42005">
        <ele>217</ele>
        <time>2016-10-20T13:49:06Z</time>
      </trkpt>
      <trkpt lat="50.50723" lon="5.42">
        <ele>217</ele>
        <time>2016-10-20T13:51:06Z</time>
      </trkpt>
      <trkpt lat="50.50738" lon="5.42006">
        <ele>218</ele>
        <time>2016-10-20T13:53:06Z</time>
      </trkpt>
      <trkpt lat="50.50778" lon="5.42042">
        <ele>219</ele>
        <time>2016-10-20T13:55:06Z</time>
      </trkpt>
      <trkpt lat="50.50862" lon="5.42205">
        <ele>221</ele>
        <time>2016-10-20T13:57:06Z</time>
      </trkpt>
      <trkpt lat="50.50882" lon="5.42252">
        <ele>221</ele>
        <time>2016-10-20T13:59:06Z</time>
      </trkpt>
      <trkpt lat="50.50947" lon="5.42465">
        <ele>218</ele>
        <time>2016-10-20T14:01:06Z</time>
      </trkpt>
      <trkpt lat="50.50967" lon="5.42577">
        <ele>217</ele>
        <time>2016-10-20T14:03:06Z</time>
      </trkpt>
      <trkpt lat="50.50971" lon="5.42615">
        <ele>217</ele>
        <time>2016-10-20T14:05:06Z</time>
      </trkpt>
      <trkpt lat="50.5097" lon="5.42653">
        <ele>217</ele>
        <time>2016-10-20T14:07:06Z</time>
      </trkpt>
      <trkpt lat="50.51007" lon="5.42699">
        <ele>219</ele>
        <time>2016-10-20T14:09:06Z</time>
      </trkpt>
      <trkpt lat="50.51041" lon="5.42803">
        <ele>221</ele>
        <time>2016-10-20T14:11:06Z</time>
      </trkpt>
      <trkpt lat="50.51122" lon="5.43017">
        <ele>225</ele>
        <time>2016-10-20T14:13:06Z</time>
      </trkpt>
      <trkpt lat="50.51139" lon="5.43084">
        <ele>226</ele>
        <time>2016-10-20T14:15:06Z</time>
      </trkpt>
      <trkpt lat="50.51151" lon="5.43106">
        <ele>226</ele>
        <time>2016-10-20T14:17:06Z</time>
      </trkpt>
      <trkpt lat="50.5116" lon="5.4311">
        <ele>226</ele>
        <time>2016-10-20T14:19:06Z</time>
      </trkpt>
      <trkpt lat="50.51174" lon="5.43107">
        <ele>226</ele>
        <time>2016-10-20T14:21:06Z</time>
      </trkpt>
      <trkpt lat="50.51273" lon="5.43034">
        <ele>231</ele>
        <time>2016-10-20T14:23:06Z</time>
      </trkpt>
      <trkpt lat="50.51353" lon="5.42989">
        <ele>237</ele>
        <time>2016-10-20T14:25:06Z</time>
      </trkpt>
      <trkpt lat="50.51449" lon="5.42894">
        <ele>242</ele>
        <time>2016-10-20T14:27:06Z</time>
      </trkpt>
      <trkpt lat="50.51484" lon="5.4284">
        <ele>244</ele>
        <time>2016-10-20T14:29:06Z</time>
      </trkpt>
      <trkpt lat="50.51558" lon="5.4283">
        <ele>249</ele>
        <time>2016-10-20T14:31:06Z</time>
      </trkpt>
      <trkpt lat="50.51723" lon="5.42795">
        <ele>260</ele>
        <time>2016-10-20T14:33:06Z</time>
      </trkpt>
      <trkpt lat="50.52052" lon="5.42835">
        <ele>265</ele>
        <time>2016-10-20T14:35:06Z</time>
      </trkpt>
      <trkpt lat="50.52064" lon="5.42827">
        <ele>265</ele>
        <time>2016-10-20T14:37:06Z</time>
      </trkpt>
      <trkpt lat="50.52077" lon="5.42809">
        <ele>265</ele>
        <time>2016-10-20T14:39:06Z</time>
      </trkpt>
      <trkpt lat="50.52141" lon="5.42669">
        <ele>262</ele>
        <time>2016-10-20T14:41:06Z</time>
      </trkpt>
      <trkpt lat="50.52341" lon="5.42228">
        <ele>262</ele>
        <time>2016-10-20T14:43:06Z</time>
      </trkpt>
      <trkpt lat="50.5237" lon="5.422">
        <ele>261</ele>
        <time>2016-10-20T14:45:06Z</time>
      </trkpt>
      <trkpt lat="50.52382" lon="5.42203">
        <ele>261</ele>
        <time>2016-10-20T14:47:06Z</time>
      </trkpt>
      <trkpt lat="50.52392" lon="5.42188">
        <ele>261</ele>
        <time>2016-10-20T14:49:06Z</time>
      </trkpt>
      <trkpt lat="50.52396" lon="5.42118">
        <ele>260</ele>
        <time>2016-10-20T14:51:06Z</time>
      </trkpt>
      <trkpt lat="50.5241" lon="5.42067">
        <ele>259</ele>
        <time>2016-10-20T14:53:06Z</time>
      </trkpt>
      <trkpt lat="50.52423" lon="5.42036">
        <ele>258</ele>
        <time>2016-10-20T14:55:06Z</time>
      </trkpt>
      <trkpt lat="50.52487" lon="5.41922">
        <ele>257</ele>
        <time>2016-10-20T14:57:06Z</time>
      </trkpt>
      <trkpt lat="50.52521" lon="5.41838">
        <ele>256</ele>
        <time>2016-10-20T14:59:06Z</time>
      </trkpt>
      <trkpt lat="50.52604" lon="5.41711">
        <ele>251</ele>
        <time>2016-10-20T15:01:06Z</time>
      </trkpt>
      <trkpt lat="50.5261" lon="5.41693">
        <ele>250</ele>
        <time>2016-10-20T15:03:06Z</time>
      </trkpt>
      <trkpt lat="50.52606" lon="5.41664">
        <ele>250</ele>
        <time>2016-10-20T15:05:06Z</time>
      </trkpt>
      <trkpt lat="50.52571" lon="5.41598">
        <ele>251</ele>
        <time>2016-10-20T15:07:06Z</time>
      </trkpt>
      <trkpt lat="50.52567" lon="5.41571">
        <ele>251</ele>
        <time>2016-10-20T15:09:06Z</time>
      </trkpt>
      <trkpt lat="50.52635" lon="5.41516">
        <ele>246</ele>
        <time>2016-10-20T15:11:06Z</time>
      </trkpt>
      <trkpt lat="50.52682" lon="5.41466">
        <ele>243</ele>
        <time>2016-10-20T15:13:06Z</time>
      </trkpt>
      <trkpt lat="50.52723" lon="5.41442">
        <ele>242</ele>
        <time>2016-10-20T15:15:06Z</time>
      </trkpt>
      <trkpt lat="50.52761" lon="5.41391">
        <ele>241</ele>
        <time>2016-10-20T15:17:06Z</time>
      </trkpt>
      <trkpt lat="50.52804" lon="5.41348">
        <ele>242</ele>
        <time>2016-10-20T15:19:06Z</time>
      </trkpt>
      <trkpt lat="50.52828" lon="5.41317">
        <ele>242</ele>
        <time>2016-10-20T15:21:06Z</time>
      </trkpt>
      <trkpt lat="50.52935" lon="5.41148">
        <ele>238</ele>
        <time>2016-10-20T15:23:06Z</time>
      </trkpt>
      <trkpt lat="50.52984" lon="5.41113">
        <ele>236</ele>
        <time>2016-10-20T15:25:06Z</time>
      </trkpt>
      <trkpt lat="50.53001" lon="5.41113">
        <ele>235</ele>
        <time>2016-10-20T15:27:06Z</time>
      </trkpt>
      <trkpt lat="50.53013" lon="5.41119">
        <ele>235</ele>
        <time>2016-10-20T15:29:06Z</time>
      </trkpt>
      <trkpt lat="50.53025" lon="5.41116">
        <ele>234</ele>
        <time>2016-10-20T15:31:06Z</time>
      </trkpt>
      <trkpt lat="50.53064" lon="5.41082">
        <ele>233</ele>
        <time>2016-10-20T15:33:06Z</time>
      </trkpt>
      <trkpt lat="50.53116" lon="5.41056">
        <ele>232</ele>
        <time>2016-10-20T15:35:06Z</time>
      </trkpt>
      <trkpt lat="50.5319" lon="5.41059">
        <ele>231</ele>
        <time>2016-10-20T15:37:06Z</time>
      </trkpt>
      <trkpt lat="50.53254" lon="5.4103">
        <ele>231</ele>
        <time>2016-10-20T15:39:06Z</time>
      </trkpt>
      <trkpt lat="50.53339" lon="5.40968">
        <ele>229</ele>
        <time>2016-10-20T15:41:06Z</time>
      </trkpt>
      <trkpt lat="50.53536" lon="5.40801">
        <ele>224</ele>
        <time>2016-10-20T15:43:06Z</time>
      </trkpt>
      <trkpt lat="50.53675" lon="5.40718">
        <ele>229</ele>
        <time>2016-10-20T15:45:06Z</time>
      </trkpt>
      <trkpt lat="50.53697" lon="5.40717">
        <ele>230</ele>
        <time>2016-10-20T15:47:06Z</time>
      </trkpt>
      <trkpt lat="50.53765" lon="5.40732">
        <ele>234</ele>
        <time>2016-10-20T15:49:06Z</time>
      </trkpt>
      <trkpt lat="50.53826" lon="5.40756">
        <ele>237</ele>
        <time>2016-10-20T15:51:06Z</time>
      </trkpt>
      <trkpt lat="50.53916" lon="5.40789">
        <ele>239</ele>
        <time>2016-10-20T15:53:06Z</time>
      </trkpt>
      <trkpt lat="50.53942" lon="5.40779">
        <ele>238</ele>
        <time>2016-10-20T15:55:06Z</time>
      </trkpt>
      <trkpt lat="50.54005" lon="5.40741">
        <ele>236</ele>
        <time>2016-10-20T15:57:06Z</time>
      </trkpt>
      <trkpt lat="50.54055" lon="5.40737">
        <ele>233</ele>
        <time>2016-10-20T15:59:06Z</time>
      </trkpt>
      <trkpt lat="50.54109" lon="5.40706">
        <ele>230</ele>
        <time>2016-10-20T16:01:06Z</time>
      </trkpt>
      <trkpt lat="50.54119" lon="5.40705">
        <ele>230</ele>
        <time>2016-10-20T16:03:06Z</time>
      </trkpt>
      <trkpt lat="50.54158" lon="5.40718">
        <ele>230</ele>
        <time>2016-10-20T16:05:06Z</time>
      </trkpt>
      <trkpt lat="50.54221" lon="5.40693">
        <ele>230</ele>
        <time>2016-10-20T16:07:06Z</time>
      </trkpt>
      <trkpt lat="50.54236" lon="5.40682">
        <ele>230</ele>
        <time>2016-10-20T16:09:06Z</time>
      </trkpt>
      <trkpt lat="50.54246" lon="5.40667">
        <ele>230</ele>
        <time>2016-10-20T16:11:06Z</time>
      </trkpt>
      <trkpt lat="50.54297" lon="5.40568">
        <ele>230</ele>
        <time>2016-10-20T16:13:06Z</time>
      </trkpt>
      <trkpt lat="50.54321" lon="5.40531">
        <ele>230</ele>
        <time>2016-10-20T16:15:06Z</time>
      </trkpt>
      <trkpt lat="50.54442" lon="5.40401">
        <ele>231</ele>
        <time>2016-10-20T16:17:06Z</time>
      </trkpt>
      <trkpt lat="50.54507" lon="5.40367">
        <ele>232</ele>
        <time>2016-10-20T16:19:06Z</time>
      </trkpt>
      <trkpt lat="50.54597" lon="5.40345">
        <ele>235</ele>
        <time>2016-10-20T16:21:06Z</time>
      </trkpt>
      <trkpt lat="50.54651" lon="5.4041">
        <ele>235</ele>
        <time>2016-10-20T16:23:06Z</time>
      </trkpt>
      <trkpt lat="50.5472" lon="5.40454">
        <ele>234</ele>
        <time>2016-10-20T16:25:06Z</time>
      </trkpt>
      <trkpt lat="50.54751" lon="5.40372">
        <ele>233</ele>
        <time>2016-10-20T16:27:06Z</time>
      </trkpt>
      <trkpt lat="50.54817" lon="5.40186">
        <ele>231</ele>
        <time>2016-10-20T16:29:06Z</time>
      </trkpt>
      <trkpt lat="50.54825" lon="5.40171">
        <ele>231</ele>
        <time>2016-10-20T16:31:06Z</time>
      </trkpt>
      <trkpt lat="50.54838" lon="5.40159">
        <ele>231</ele>
        <time>2016-10-20T16:33:06Z</time>
      </trkpt>
      <trkpt lat="50.54921" lon="5.4011">
        <ele>228</ele>
        <time>2016-10-20T16:35:06Z</time>
      </trkpt>
      <trkpt lat="50.5496" lon="5.40076">
        <ele>226</ele>
        <time>2016-10-20T16:37:06Z</time>
      </trkpt>
      <trkpt lat="50.55039" lon="5.40016">
        <ele>222</ele>
        <time>2016-10-20T16:39:06Z</time>
      </trkpt>
      <trkpt lat="50.55064" lon="5.3999">
        <ele>220</ele>
        <time>2016-10-20T16:41:06Z</time>
      </trkpt>
      <trkpt lat="50.55111" lon="5.39914">
        <ele>217</ele>
        <time>2016-10-20T16:43:06Z</time>
      </trkpt>
      <trkpt lat="50.55135" lon="5.39892">
        <ele>215</ele>
        <time>2016-10-20T16:45:06Z</time>
      </trkpt>
      <trkpt lat="50.55159" lon="5.39893">
        <ele>214</ele>
        <time>2016-10-20T16:47:06Z</time>
      </trkpt>
      <trkpt lat="50.55212" lon="5.39925">
        <ele>214</ele>
        <time>2016-10-20T16:49:06Z</time>
      </trkpt>
      <trkpt lat="50.55248" lon="5.39938">
        <ele>213</ele>
        <time>2016-10-20T16:51:06Z</time>
      </trkpt>
      <trkpt lat="50.55351" lon="5.39906">
        <ele>208</ele>
        <time>2016-10-20T16:53:06Z</time>
      </trkpt>
      <trkpt lat="50.5538" lon="5.39883">
        <ele>207</ele>
        <time>2016-10-20T16:55:06Z</time>
      </trkpt>
      <trkpt lat="50.55392" lon="5.39865">
        <ele>206</ele>
        <time>2016-10-20T16:57:06Z</time>
      </trkpt>
      <trkpt lat="50.5542" lon="5.39796">
        <ele>201</ele>
        <time>2016-10-20T16:59:06Z</time>
      </trkpt>
      <trkpt lat="50.55431" lon="5.39761">
        <ele>199</ele>
        <time>2016-10-20T17:01:06Z</time>
      </trkpt>
      <trkpt lat="50.5545" lon="5.39672">
        <ele>193</ele>
        <time>2016-10-20T17:03:06Z</time>
      </trkpt>
      <trkpt lat="50.55459" lon="5.39657">
        <ele>193</ele>
        <time>2016-10-20T17:05:06Z</time>
      </trkpt>
      <trkpt lat="50.55516" lon="5.39607">
        <ele>191</ele>
        <time>2016-10-20T17:07:06Z</time>
      </trkpt>
      <trkpt lat="50.55657" lon="5.3942">
        <ele>180</ele>
        <time>2016-10-20T17:09:06Z</time>
      </trkpt>
      <trkpt lat="50.55697" lon="5.39384">
        <ele>176</ele>
        <time>2016-10-20T17:11:06Z</time>
      </trkpt>
      <trkpt lat="50.55758" lon="5.39341">
        <ele>170</ele>
        <time>2016-10-20T17:13:06Z</time>
      </trkpt>
      <trkpt lat="50.55789" lon="5.39326">
        <ele>169</ele>
        <time>2016-10-20T17:15:06Z</time>
      </trkpt>
      <trkpt lat="50.55838" lon="5.39329">
        <ele>167</ele>
        <time>2016-10-20T17:17:06Z</time>
      </trkpt>
      <trkpt lat="50.55952" lon="5.39378">
        <ele>166</ele>
        <time>2016-10-20T17:19:06Z</time>
      </trkpt>
      <trkpt lat="50.55976" lon="5.39384">
        <ele>165</ele>
        <time>2016-10-20T17:21:06Z</time>
      </trkpt>
      <trkpt lat="50.56094" lon="5.39366">
        <ele>162</ele>
        <time>2016-10-20T17:23:06Z</time>
      </trkpt>
      <trkpt lat="50.56118" lon="5.39358">
        <ele>159</ele>
        <time>2016-10-20T17:25:06Z</time>
      </trkpt>
      <trkpt lat="50.56189" lon="5.39324">
        <ele>152</ele>
        <time>2016-10-20T17:27:06Z</time>
      </trkpt>
      <trkpt lat="50.5623" lon="5.39296">
        <ele>148</ele>
        <time>2016-10-20T17:29:06Z</time>
      </trkpt>
      <trkpt lat="50.56243" lon="5.3928">
        <ele>146</ele>
        <time>2016-10-20T17:31:06Z</time>
      </trkpt>
      <trkpt lat="50.56271" lon="5.39224">
        <ele>140</ele>
        <time>2016-10-20T17:33:06Z</time>
      </trkpt>
      <trkpt lat="50.56302" lon="5.3918">
        <ele>136</ele>
        <time>2016-10-20T17:35:06Z</time>
      </trkpt>
      <trkpt lat="50.56318" lon="5.39135">
        <ele>136</ele>
        <time>2016-10-20T17:37:06Z</time>
      </trkpt>
      <trkpt lat="50.56393" lon="5.39045">
        <ele>131</ele>
        <time>2016-10-20T17:39:06Z</time>
      </trkpt>
      <trkpt lat="50.56407" lon="5.39042">
        <ele>129</ele>
        <time>2016-10-20T17:41:06Z</time>
      </trkpt>
      <trkpt lat="50.56496" lon="5.39054">
        <ele>113</ele>
        <time>2016-10-20T17:43:06Z</time>
      </trkpt>
      <trkpt lat="50.56527" lon="5.39062">
        <ele>110</ele>
        <time>2016-10-20T17:45:06Z</time>
      </trkpt>
      <trkpt lat="50.5655" lon="5.39076">
        <ele>107</ele>
        <time>2016-10-20T17:47:06Z</time>
      </trkpt>
      <trkpt lat="50.56583" lon="5.39107">
        <ele>102</ele>
        <time>2016-10-20T17:49:06Z</time>
      </trkpt>
      <trkpt lat="50.56602" lon="5.39119">
        <ele>99</ele>
        <time>2016-10-20T17:51:06Z</time>
      </trkpt>
      <trkpt lat="50.56691" lon="5.39143">
        <ele>91</ele>
        <time>2016-10-20T17:53:06Z</time>
      </trkpt>
      <trkpt lat="50.56743" lon="5.39216">
        <ele>89</ele>
        <time>2016-10-20T17:55:06Z</time>
      </trkpt>
      <trkpt lat="50.56785" lon="5.3925">
        <ele>86</ele>
        <time>2016-10-20T17:57:06Z</time>
      </trkpt>
      <trkpt lat="50.56835" lon="5.39265">
        <ele>82</ele>
        <time>2016-10-20T17:59:06Z</time>
      </trkpt>
      <trkpt lat="50.56895" lon="5.39254">
        <ele>78</ele>
        <time>2016-10-20T18:01:06Z</time>
      </trkpt>
      <trkpt lat="50.56924" lon="5.39237">
        <ele>75</ele>
        <time>2016-10-20T18:03:06Z</time>
      </trkpt>
      <trkpt lat="50.56932" lon="5.3922">
        <ele>75</ele>
        <time>2016-10-20T18:05:06Z</time>
      </trkpt>
      <trkpt lat="50.56938" lon="5.39189">
        <ele>74</ele>
        <time>2016-10-20T18:07:06Z</time>
      </trkpt>
      <trkpt lat="50.56916" lon="5.39151">
        <ele>73</ele>
        <time>2016-10-20T18:09:06Z</time>
      </trkpt>
      <trkpt lat="50.56681" lon="5.38881">
        <ele>79</ele>
        <time>2016-10-20T18:11:06Z</time>
      </trkpt>
      <trkpt lat="50.56634" lon="5.38786">
        <ele>79</ele>
        <time>2016-10-20T18:13:06Z</time>
      </trkpt>
      <trkpt lat="50.56566" lon="5.38626">
        <ele>74</ele>
        <time>2016-10-20T18:15:06Z</time>
      </trkpt>
      <trkpt lat="50.56533" lon="5.38532">
        <ele>74</ele>
        <time>2016-10-20T18:17:06Z</time>
      </trkpt>
      <trkpt lat="50.56555" lon="5.38535">
        <ele>72</ele>
        <time>2016-10-20T18:19:06Z</time>
      </trkpt>
      <trkpt lat="50.56603" lon="5.3854">
        <ele>70</ele>
        <time>2016-10-20T18:21:06Z</time>
      </trkpt>
      <trkpt lat="50.56661" lon="5.38559">
        <ele>69</ele>
        <time>2016-10-20T18:23:06Z</time>
      </trkpt>
      <trkpt lat="50.56707" lon="5.38617">
        <ele>69</ele>
        <time>2016-10-20T18:25:06Z</time>
      </trkpt>
      <trkpt lat="50.5687" lon="5.38879">
        <ele>67</ele>
        <time>2016-10-20T18:27:06Z</time>
      </trkpt>
      <trkpt lat="50.56985" lon="5.39059">
        <ele>68</ele>
        <time>2016-10-20T18:29:06Z</time>
      </trkpt>
      <trkpt lat="50.57061" lon="5.39202">
        <ele>69</ele>
        <time>2016-10-20T18:31:06Z</time>
      </trkpt>
      <trkpt lat="50.57286" lon="5.39699">
        <ele>74</ele>
        <time>2016-10-20T18:33:06Z</time>
      </trkpt>
      <trkpt lat="50.5747" lon="5.4014">
        <ele>74</ele>
        <time>2016-10-20T18:35:06Z</time>
      </trkpt>
      <trkpt lat="50.57554" lon="5.4035">
        <ele>75</ele>
        <time>2016-10-20T18:37:06Z</time>
      </trkpt>
      <trkpt lat="50.57602" lon="5.40452">
        <ele>74</ele>
        <time>2016-10-20T18:39:06Z</time>
      </trkpt>
      <trkpt lat="50.57622" lon="5.40489">
        <ele>74</ele>
        <time>2016-10-20T18:41:06Z</time>
      </trkpt>
      <trkpt lat="50.57763" lon="5.40711">
        <ele>75</ele>
        <time>2016-10-20T18:43:06Z</time>
      </trkpt>
      <trkpt lat="50.57875" lon="5.40851">
        <ele>71</ele>
        <time>2016-10-20T18:45:06Z</time>
      </trkpt>
      <trkpt lat="50.57993" lon="5.40652">
        <ele>71</ele>
        <time>2016-10-20T18:47:06Z</time>
      </trkpt>
      <trkpt lat="50.58119" lon="5.40496">
        <ele>66</ele>
        <time>2016-10-20T18:49:06Z</time>
      </trkpt>
      <trkpt lat="50.58159" lon="5.40454">
        <ele>67</ele>
        <time>2016-10-20T18:51:06Z</time>
      </trkpt>
      <trkpt lat="50.58181" lon="5.40435">
        <ele>68</ele>
        <time>2016-10-20T18:53:06Z</time>
      </trkpt>
      <trkpt lat="50.58191" lon="5.40433">
        <ele>69</ele>
        <time>2016-10-20T18:55:06Z</time>
      </trkpt>
      <trkpt lat="50.58198" lon="5.40439">
        <ele>69</ele>
        <time>2016-10-20T18:57:06Z</time>
      </trkpt>
      <trkpt lat="50.58216" lon="5.40482">
        <ele>68</ele>
        <time>2016-10-20T18:59:06Z</time>
      </trkpt>
      <trkpt lat="50.58213" lon="5.40519">
        <ele>68</ele>
        <time>2016-10-20T19:01:06Z</time>
      </trkpt>
      <trkpt lat="50.58199" lon="5.40562">
        <ele>67</ele>
        <time>2016-10-20T19:03:06Z</time>
      </trkpt>
      <trkpt lat="50.58193" lon="5.4057">
        <ele>67</ele>
        <time>2016-10-20T19:05:06Z</time>
      </trkpt>
      <trkpt lat="50.58173" lon="5.40577">
        <ele>67</ele>
        <time>2016-10-20T19:07:06Z</time>
      </trkpt>
      <trkpt lat="50.58273" lon="5.40855">
        <ele>68</ele>
        <time>2016-10-20T19:09:06Z</time>
      </trkpt>
      <trkpt lat="50.58348" lon="5.41036">
        <ele>69</ele>
        <time>2016-10-20T19:11:06Z</time>
      </trkpt>
      <trkpt lat="50.58447" lon="5.41234">
        <ele>70</ele>
        <time>2016-10-20T19:13:06Z</time>
      </trkpt>
      <trkpt lat="50.586" lon="5.41491">
        <ele>68</ele>
        <time>2016-10-20T19:15:06Z</time>
      </trkpt>
      <trkpt lat="50.58612" lon="5.41539">
        <ele>68</ele>
        <time>2016-10-20T19:17:06Z</time>
      </trkpt>
      <trkpt lat="50.58612" lon="5.41575">
        <ele>67</ele>
        <time>2016-10-20T19:19:06Z</time>
      </trkpt>
      <trkpt lat="50.58653" lon="5.41564">
        <ele>68</ele>
        <time>2016-10-20T19:21:06Z</time>
      </trkpt>
      <trkpt lat="50.58717" lon="5.4153">
        <ele>71</ele>
        <time>2016-10-20T19:23:06Z</time>
      </trkpt>
      <trkpt lat="50.58825" lon="5.41391">
        <ele>73</ele>
        <time>2016-10-20T19:25:06Z</time>
      </trkpt>
      <trkpt lat="50.58876" lon="5.41346">
        <ele>73</ele>
        <time>2016-10-20T19:27:06Z</time>
      </trkpt>
      <trkpt lat="50.58896" lon="5.41314">
        <ele>72</ele>
        <time>2016-10-20T19:29:06Z</time>
      </trkpt>
      <trkpt lat="50.58963" lon="5.41136">
        <ele>79</ele>
        <time>2016-10-20T19:31:06Z</time>
      </trkpt>
      <trkpt lat="50.58971" lon="5.41119">
        <ele>80</ele>
        <time>2016-10-20T19:33:06Z</time>
      </trkpt>
      <trkpt lat="50.58994" lon="5.4109">
        <ele>81</ele>
        <time>2016-10-20T19:35:06Z</time>
      </trkpt>
      <trkpt lat="50.59009" lon="5.41081">
        <ele>82</ele>
        <time>2016-10-20T19:37:06Z</time>
      </trkpt>
      <trkpt lat="50.59031" lon="5.4108">
        <ele>83</ele>
        <time>2016-10-20T19:39:06Z</time>
      </trkpt>
      <trkpt lat="50.59188" lon="5.41143">
        <ele>88</ele>
        <time>2016-10-20T19:41:06Z</time>
      </trkpt>
      <trkpt lat="50.59212" lon="5.41148">
        <ele>89</ele>
        <time>2016-10-20T19:43:06Z</time>
      </trkpt>
      <trkpt lat="50.59323" lon="5.41112">
        <ele>93</ele>
        <time>2016-10-20T19:45:06Z</time>
      </trkpt>
      <trkpt lat="50.59492" lon="5.41077">
        <ele>88</ele>
        <time>2016-10-20T19:47:06Z</time>
      </trkpt>
      <trkpt lat="50.59536" lon="5.4108">
        <ele>88</ele>
        <time>2016-10-20T19:49:06Z</time>
      </trkpt>
      <trkpt lat="50.59658" lon="5.4111">
        <ele>87</ele>
        <time>2016-10-20T19:51:06Z</time>
      </trkpt>
      <trkpt lat="50.59779" lon="5.41108">
        <ele>90</ele>
        <time>2016-10-20T19:53:06Z</time>
      </trkpt>
      <trkpt lat="50.59817" lon="5.41083">
        <ele>90</ele>
        <time>2016-10-20T19:55:06Z</time>
      </trkpt>
      <trkpt lat="50.59848" lon="5.41048">
        <ele>90</ele>
        <time>2016-10-20T19:57:06Z</time>
      </trkpt>
      <trkpt lat="50.59869" lon="5.4101">
        <ele>89</ele>
        <time>2016-10-20T19:59:06Z</time>
      </trkpt>
      <trkpt lat="50.60002" lon="5.40566">
        <ele>90</ele>
        <time>2016-10-20T20:01:06Z</time>
      </trkpt>
      <trkpt lat="50.60017" lon="5.40538">
        <ele>91</ele>
        <time>2016-10-20T20:03:06Z</time>
      </trkpt>
      <trkpt lat="50.60031" lon="5.40525">
        <ele>91</ele>
        <time>2016-10-20T20:05:06Z</time>
      </trkpt>
      <trkpt lat="50.6021" lon="5.40427">
        <ele>97</ele>
        <time>2016-10-20T20:07:06Z</time>
      </trkpt>
      <trkpt lat="50.60341" lon="5.40363">
        <ele>99</ele>
        <time>2016-10-20T20:09:06Z</time>
      </trkpt>
      <trkpt lat="50.6046" lon="5.40288">
        <ele>97</ele>
        <time>2016-10-20T20:11:06Z</time>
      </trkpt>
      <trkpt lat="50.60475" lon="5.40276">
        <ele>97</ele>
        <time>2016-10-20T20:13:06Z</time>
      </trkpt>
      <trkpt lat="50.60579" lon="5.40158">
        <ele>99</ele>
        <time>2016-10-20T20:15:06Z</time>
      </trkpt>
      <trkpt lat="50.60624" lon="5.40101">
        <ele>100</ele>
        <time>2016-10-20T20:17:06Z</time>
      </trkpt>
      <trkpt lat="50.6064" lon="5.40074">
        <ele>100</ele>
        <time>2016-10-20T20:19:06Z</time>
      </trkpt>
      <trkpt lat="50.6066" lon="5.40025">
        <ele>99</ele>
        <time>2016-10-20T20:21:06Z</time>
      </trkpt>
      <trkpt lat="50.60738" lon="5.39806">
        <ele>105</ele>
        <time>2016-10-20T20:23:06Z</time>
      </trkpt>
      <trkpt lat="50.60771" lon="5.39709">
        <ele>109</ele>
        <time>2016-10-20T20:25:06Z</time>
      </trkpt>
      <trkpt lat="50.60858" lon="5.3942">
        <ele>114</ele>
        <time>2016-10-20T20:27:06Z</time>
      </trkpt>
      <trkpt lat="50.60893" lon="5.39353">
        <ele>112</ele>
        <time>2016-10-20T20:29:06Z</time>
      </trkpt>
      <trkpt lat="50.60953" lon="5.39272">
        <ele>113</ele>
        <time>2016-10-20T20:31:06Z</time>
      </trkpt>
      <trkpt lat="50.60979" lon="5.39245">
        <ele>114</ele>
        <time>2016-10-20T20:33:06Z</time>
      </trkpt>
      <trkpt lat="50.61014" lon="5.39225">
        <ele>113</ele>
        <time>2016-10-20T20:35:06Z</time>
      </trkpt>
      <trkpt lat="50.61046" lon="5.39216">
        <ele>114</ele>
        <time>2016-10-20T20:37:06Z</time>
      </trkpt>
      <trkpt lat="50.61165" lon="5.39199">
        <ele>114</ele>
        <time>2016-10-20T20:39:06Z</time>
      </trkpt>
      <trkpt lat="50.61206" lon="5.39183">
        <ele>112</ele>
        <time>2016-10-20T20:41:06Z</time>
      </trkpt>
      <trkpt lat="50.61234" lon="5.39164">
        <ele>110</ele>
        <time>2016-10-20T20:43:06Z</time>
      </trkpt>
      <trkpt lat="50.6125" lon="5.39147">
        <ele>110</ele>
        <time>2016-10-20T20:45:06Z</time>
      </trkpt>
      <trkpt lat="50.61392" lon="5.38973">
        <ele>118</ele>
        <time>2016-10-20T20:47:06Z</time>
      </trkpt>
      <trkpt lat="50.61422" lon="5.38946">
        <ele>120</ele>
        <time>2016-10-20T20:49:06Z</time>
      </trkpt>
      <trkpt lat="50.61464" lon="5.38925">
        <ele>122</ele>
        <time>2016-10-20T20:51:06Z</time>
      </trkpt>
      <trkpt lat="50.61512" lon="5.38935">
        <ele>126</ele>
        <time>2016-10-20T20:53:06Z</time>
      </trkpt>
      <trkpt lat="50.61571" lon="5.38993">
        <ele>125</ele>
        <time>2016-10-20T20:55:06Z</time>
      </trkpt>
      <trkpt lat="50.61621" lon="5.39021">
        <ele>124</ele>
        <time>2016-10-20T20:57:06Z</time>
      </trkpt>
      <trkpt lat="50.61704" lon="5.39087">
        <ele>129</ele>
        <time>2016-10-20T20:59:06Z</time>
      </trkpt>
      <trkpt lat="50.61747" lon="5.39143">
        <ele>129</ele>
        <time>2016-10-20T21:01:06Z</time>
      </trkpt>
      <trkpt lat="50.61876" lon="5.39337">
        <ele>135</ele>
        <time>2016-10-20T21:03:06Z</time>
      </trkpt>
      <trkpt lat="50.61914" lon="5.39387">
        <ele>135</ele>
        <time>2016-10-20T21:05:06Z</time>
      </trkpt>
      <trkpt lat="50.62096" lon="5.39562">
        <ele>138</ele>
        <time>2016-10-20T21:07:06Z</time>
      </trkpt>
      <trkpt lat="50.6215" lon="5.39606">
        <ele>139</ele>
        <time>2016-10-20T21:09:06Z</time>
      </trkpt>
      <trkpt lat="50.62172" lon="5.39614">
        <ele>138</ele>
        <time>2016-10-20T21:11:06Z</time>
      </trkpt>
      <trkpt lat="50.62488" lon="5.39606">
        <ele>143</ele>
        <time>2016-10-20T21:13:06Z</time>
      </trkpt>
      <trkpt lat="50.62488" lon="5.39605">
        <ele>142.4</ele>
      </trkpt>
      <trkpt lat="50.62492" lon="5.39615">
        <ele>143.2</ele>
      </trkpt>
      <trkpt lat="50.62503" lon="5.39648">
        <ele>145.6</ele>
      </trkpt>
      <trkpt lat="50.62517" lon="5.39724">
        <ele>148.7</ele>
      </trkpt>
      <trkpt lat="50.62515" lon="5.39762">
        <ele>150.2</ele>
      </trkpt>
      <trkpt lat="50.62513" lon="5.39783">
        <ele>150.9</ele>
      </trkpt>
      <trkpt lat="50.62512" lon="5.3979">
        <ele>151.2</ele>
      </trkpt>
      <trkpt lat="50.62495" lon="5.39847">
        <ele>154.7</ele>
      </trkpt>
      <trkpt lat="50.62497" lon="5.39924">
        <ele>157.4</ele>
      </trkpt>
      <trkpt lat="50.62507" lon="5.40013">
        <ele>159.2</ele>
      </trkpt>
      <trkpt lat="50.62531" lon="5.4018">
        <ele>160.5</ele>
      </trkpt>
      <trkpt lat="50.62559" lon="5.40338">
        <ele>161.9</ele>
      </trkpt>
      <trkpt lat="50.62589" lon="5.40472">
        <ele>161.8</ele>
      </trkpt>
      <trkpt lat="50.62555" lon="5.40655">
        <ele>165.6</ele>
      </trkpt>
      <trkpt lat="50.62525" lon="5.40807">
        <ele>168.1</ele>
      </trkpt>
      <trkpt lat="50.62505" lon="5.40932">
        <ele>170.4</ele>
      </trkpt>
      <trkpt lat="50.62438" lon="5.41018">
        <ele>173.1</ele>
      </trkpt>
      <trkpt lat="50.62355" lon="5.41127">
        <ele>175.2</ele>
      </trkpt>
      <trkpt lat="50.62305" lon="5.4119">
        <ele>177</ele>
      </trkpt>
      <trkpt lat="50.62262" lon="5.41127">
        <ele>177.6</ele>
      </trkpt>
      <trkpt lat="50.62235" lon="5.41096">
        <ele>178</ele>
      </trkpt>
      <trkpt lat="50.62213" lon="5.41091">
        <ele>178.3</ele>
      </trkpt>
      <trkpt lat="50.62175" lon="5.41101">
        <ele>179.7</ele>
      </trkpt>
      <trkpt lat="50.62121" lon="5.41121">
        <ele>180.4</ele>
      </trkpt>
      <trkpt lat="50.62089" lon="5.41119">
        <ele>180.9</ele>
      </trkpt>
      <trkpt lat="50.62053" lon="5.41143">
        <ele>182</ele>
      </trkpt>
      <trkpt lat="50.61998" lon="5.41162">
        <ele>182</ele>
      </trkpt>
      <trkpt lat="50.61945" lon="5.41201">
        <ele>182.2</ele>
      </trkpt>
      <trkpt lat="50.61918" lon="5.41228">
        <ele>183</ele>
      </trkpt>
      <trkpt lat="50.61918" lon="5.41259">
        <ele>183</ele>
      </trkpt>
      <trkpt lat="50.61946" lon="5.41339">
        <ele>184.2</ele>
      </trkpt>
      <trkpt lat="50.61989" lon="5.4145">
        <ele>185.1</ele>
      </trkpt>
      <trkpt lat="50.62021" lon="5.41545">
        <ele>186</ele>
      </trkpt>
      <trkpt lat="50.62012" lon="5.4157">
        <ele>185.2</ele>
      </trkpt>
      <trkpt lat="50.61958" lon="5.4164">
        <ele>182.7</ele>
      </trkpt>
      <trkpt lat="50.61921" lon="5.41688">
        <ele>186.9</ele>
      </trkpt>
      <trkpt lat="50.61918" lon="5.41696">
        <ele>187</ele>
      </trkpt>
      <trkpt lat="50.61914" lon="5.41705">
        <ele>186.9</ele>
      </trkpt>
      <trkpt lat="50.61907" lon="5.41726">
        <ele>186.7</ele>
      </trkpt>
      <trkpt lat="50.61901" lon="5.41766">
        <ele>186.7</ele>
      </trkpt>
      <trkpt lat="50.61898" lon="5.41811">
        <ele>186.7</ele>
      </trkpt>
      <trkpt lat="50.6189" lon="5.41902">
        <ele>186.7</ele>
      </trkpt>
      <trkpt lat="50.61886" lon="5.41965">
        <ele>186.2</ele>
      </trkpt>
      <trkpt lat="50.61893" lon="5.4203">
        <ele>185.6</ele>
      </trkpt>
      <trkpt lat="50.61901" lon="5.42134">
        <ele>186.2</ele>
      </trkpt>
      <trkpt lat="50.61904" lon="5.42249">
        <ele>188.7</ele>
      </trkpt>
      <trkpt lat="50.619" lon="5.42279">
        <ele>188.5</ele>
      </trkpt>
      <trkpt lat="50.61883" lon="5.42318">
        <ele>188.4</ele>
      </trkpt>
      <trkpt lat="50.61827" lon="5.4245">
        <ele>191.3</ele>
      </trkpt>
      <trkpt lat="50.61814" lon="5.42487">
        <ele>191.4</ele>
      </trkpt>
      <trkpt lat="50.61811" lon="5.42506">
        <ele>191.3</ele>
      </trkpt>
      <trkpt lat="50.61807" lon="5.42542">
        <ele>190.2</ele>
      </trkpt>
      <trkpt lat="50.61807" lon="5.42567">
        <ele>189.5</ele>
      </trkpt>
      <trkpt lat="50.61812" lon="5.42596">
        <ele>189</ele>
      </trkpt>
      <trkpt lat="50.61818" lon="5.4263">
        <ele>188.6</ele>
      </trkpt>
      <trkpt lat="50.61817" lon="5.42669">
        <ele>187.7</ele>
      </trkpt>
      <trkpt lat="50.6181" lon="5.42716">
        <ele>185.5</ele>
      </trkpt>
      <trkpt lat="50.61801" lon="5.42753">
        <ele>183.8</ele>
      </trkpt>
      <trkpt lat="50.61793" lon="5.4278">
        <ele>184.5</ele>
      </trkpt>
      <trkpt lat="50.61772" lon="5.42834">
        <ele>185.6</ele>
      </trkpt>
      <trkpt lat="50.61767" lon="5.42855">
        <ele>185.5</ele>
      </trkpt>
      <trkpt lat="50.61766" lon="5.42872">
        <ele>185.7</ele>
      </trkpt>
      <trkpt lat="50.61766" lon="5.42873">
        <ele>185.7</ele>
      </trkpt>
      <trkpt lat="50.61769" lon="5.4288">
        <ele>186.1</ele>
      </trkpt>
      <trkpt lat="50.61772" lon="5.4289">
        <ele>186.4</ele>
      </trkpt>
      <trkpt lat="50.61789" lon="5.42912">
        <ele>188.2</ele>
      </trkpt>
      <trkpt lat="50.61813" lon="5.42936">
        <ele>189.9</ele>
      </trkpt>
      <trkpt lat="50.61834" lon="5.42957">
        <ele>191.1</ele>
      </trkpt>
      <trkpt lat="50.61956" lon="5.43128">
        <ele>189.8</ele>
      </trkpt>
      <trkpt lat="50.61988" lon="5.43156">
        <ele>190.7</ele>
      </trkpt>
      <trkpt lat="50.6203" lon="5.4318">
        <ele>190.9</ele>
      </trkpt>
      <trkpt lat="50.62064" lon="5.4321">
        <ele>190.6</ele>
      </trkpt>
      <trkpt lat="50.62146" lon="5.43301">
        <ele>192.5</ele>
      </trkpt>
      <trkpt lat="50.6215" lon="5.43306">
        <ele>192.7</ele>
      </trkpt>
      <trkpt lat="50.62156" lon="5.43323">
        <ele>192.6</ele>
      </trkpt>
      <trkpt lat="50.62181" lon="5.43389">
        <ele>190.3</ele>
      </trkpt>
      <trkpt lat="50.62193" lon="5.43423">
        <ele>189.4</ele>
      </trkpt>
      <trkpt lat="50.62199" lon="5.4344">
        <ele>189.2</ele>
      </trkpt>
      <trkpt lat="50.62209" lon="5.43465">
        <ele>189.1</ele>
      </trkpt>
      <trkpt lat="50.62209" lon="5.43466">
        <ele>189.1</ele>
      </trkpt>
      <trkpt lat="50.62211" lon="5.43472">
        <ele>189</ele>
      </trkpt>
      <trkpt lat="50.62208" lon="5.43476">
        <ele>188.7</ele>
      </trkpt>
      <trkpt lat="50.62205" lon="5.43487">
        <ele>188.2</ele>
      </trkpt>
      <trkpt lat="50.62204" lon="5.43493">
        <ele>187.9</ele>
      </trkpt>
      <trkpt lat="50.62205" lon="5.43498">
        <ele>187.8</ele>
      </trkpt>
      <trkpt lat="50.62211" lon="5.4351">
        <ele>188</ele>
      </trkpt>
      <trkpt lat="50.62214" lon="5.43513">
        <ele>188.1</ele>
      </trkpt>
      <trkpt lat="50.62219" lon="5.43514">
        <ele>188.5</ele>
      </trkpt>
      <trkpt lat="50.62223" lon="5.43513">
        <ele>188.7</ele>
      </trkpt>
      <trkpt lat="50.62227" lon="5.4351">
        <ele>189.1</ele>
      </trkpt>
      <trkpt lat="50.62237" lon="5.43539">
        <ele>188.9</ele>
      </trkpt>
      <trkpt lat="50.6224" lon="5.43546">
        <ele>188.8</ele>
      </trkpt>
      <trkpt lat="50.6225" lon="5.4357">
        <ele>188.5</ele>
      </trkpt>
      <trkpt lat="50.6226" lon="5.43594">
        <ele>187.6</ele>
      </trkpt>
      <trkpt lat="50.62272" lon="5.43624">
        <ele>186.3</ele>
      </trkpt>
      <trkpt lat="50.62329" lon="5.43781">
        <ele>182.9</ele>
      </trkpt>
      <trkpt lat="50.62372" lon="5.43982">
        <ele>185.7</ele>
      </trkpt>
      <trkpt lat="50.62371" lon="5.43989">
        <ele>185.8</ele>
      </trkpt>
      <trkpt lat="50.62369" lon="5.44004">
        <ele>186</ele>
      </trkpt>
      <trkpt lat="50.62368" lon="5.44012">
        <ele>186</ele>
      </trkpt>
      <trkpt lat="50.62334" lon="5.44074">
        <ele>185.1</ele>
      </trkpt>
      <trkpt lat="50.62311" lon="5.44117">
        <ele>185.3</ele>
      </trkpt>
      <trkpt lat="50.62303" lon="5.44149">
        <ele>185.5</ele>
      </trkpt>
      <trkpt lat="50.62306" lon="5.4419">
        <ele>186</ele>
      </trkpt>
      <trkpt lat="50.62302" lon="5.44192">
        <ele>185.9</ele>
      </trkpt>
      <trkpt lat="50.62306" lon="5.4419">
        <ele>186</ele>
      </trkpt>
      <trkpt lat="50.62307" lon="5.44204">
        <ele>186.1</ele>
      </trkpt>
      <trkpt lat="50.62324" lon="5.44275">
        <ele>186.7</ele>
      </trkpt>
      <trkpt lat="50.62335" lon="5.44334">
        <ele>186</ele>
      </trkpt>
      <trkpt lat="50.62347" lon="5.44415">
        <ele>184.7</ele>
      </trkpt>
      <trkpt lat="50.62349" lon="5.44438">
        <ele>185.2</ele>
      </trkpt>
      <trkpt lat="50.62349" lon="5.4445">
        <ele>185.5</ele>
      </trkpt>
      <trkpt lat="50.62353" lon="5.44523">
        <ele>187.2</ele>
      </trkpt>
      <trkpt lat="50.62351" lon="5.44607">
        <ele>188.6</ele>
      </trkpt>
      <trkpt lat="50.62341" lon="5.4469">
        <ele>188.8</ele>
      </trkpt>
      <trkpt lat="50.62334" lon="5.44765">
        <ele>188</ele>
      </trkpt>
      <trkpt lat="50.62332" lon="5.4478">
        <ele>187.9</ele>
      </trkpt>
    </trkseg>
  </trk>
</gpx>